Time,TemperatureF,DewpointF,PressureIn,WindDirection,WindDirectionDegrees,WindSpeedMPH,WindSpeedGustMPH,Humidity,HourlyPrecipIn,Conditions,Clouds,dailyrainin,SoftwareType,DateUTC
2013-03-13 00:00:00,29.2,27.7,29.94,WSW,249,6.9,7.3,94,0.00,,,0.00,VWS V14.01,2013-03-13 04:00:00,
2013-03-13 00:01:00,29.5,27.9,29.94,WSW,256,8.8,8.8,94,0.00,,,0.00,VWS V14.01,2013-03-13 04:01:00,
2013-03-13 00:05:00,29.3,27.5,29.93,WSW,255,7.3,9.0,93,0.00,,,0.00,VWS V14.01,2013-03-13 04:05:00,
2013-03-13 00:06:00,29.8,28.0,29.93,WSW,250,10.2,10.2,93,0.00,,,0.00,VWS V14.01,2013-03-13 04:06:00,
2013-03-13 00:07:00,29.9,28.1,29.93,West,265,10.2,10.2,93,0.00,,,0.00,VWS V14.01,2013-03-13 04:07:00,
2013-03-13 00:11:00,29.3,27.3,29.94,West,264,9.0,10.2,92,0.00,,,0.00,VWS V14.01,2013-03-13 04:11:00,
2013-03-13 00:13:00,29.5,27.4,29.94,West,268,9.9,10.2,92,0.00,,,0.00,VWS V14.01,2013-03-13 04:13:00,
2013-03-13 00:16:00,29.5,27.3,29.94,West,259,8.1,10.2,92,0.00,,,0.00,VWS V14.01,2013-03-13 04:16:00,
2013-03-13 00:18:00,29.3,27.2,29.94,WSW,256,8.0,10.2,92,0.00,,,0.00,VWS V14.01,2013-03-13 04:18:00,
2013-03-13 00:19:00,29.0,26.8,29.94,WSW,243,6.4,10.2,91,0.00,,,0.00,VWS V14.01,2013-03-13 04:19:00,
2013-03-13 00:22:00,29.9,27.8,29.93,WSW,253,10.9,11.7,92,0.00,,,0.00,VWS V14.01,2013-03-13 04:22:00,
2013-03-13 00:24:00,28.8,26.6,29.93,WSW,246,8.5,11.7,92,0.00,,,0.00,VWS V14.01,2013-03-13 04:24:00,
2013-03-13 00:25:00,29.2,27.0,29.94,WSW,247,8.0,11.7,91,0.00,,,0.00,VWS V14.01,2013-03-13 04:25:00,
2013-03-13 00:27:00,28.2,26.1,29.93,WSW,249,7.3,11.7,92,0.00,,,0.00,VWS V14.01,2013-03-13 04:27:00,
2013-03-13 00:29:00,29.0,27.0,29.93,WSW,244,9.9,11.7,92,0.00,,,0.00,VWS V14.01,2013-03-13 04:29:00,
2013-03-13 00:32:00,29.0,27.0,29.93,WSW,247,10.0,11.7,92,0.00,,,0.00,VWS V14.01,2013-03-13 04:32:00,
2013-03-13 00:33:00,28.8,26.6,29.93,West,266,8.5,11.7,92,0.00,,,0.00,VWS V14.01,2013-03-13 04:33:00,
2013-03-13 00:35:00,28.9,26.8,29.93,WSW,252,10.5,11.7,92,0.00,,,0.00,VWS V14.01,2013-03-13 04:35:00,
2013-03-13 00:36:00,29.2,27.2,29.93,WSW,249,10.7,11.7,92,0.00,,,0.00,VWS V14.01,2013-03-13 04:36:00,
2013-03-13 00:38:00,28.5,26.4,29.94,WSW,246,8.7,11.7,92,0.00,,,0.00,VWS V14.01,2013-03-13 04:38:00,
2013-03-13 00:41:00,28.8,26.7,29.94,WSW,254,10.2,11.7,92,0.00,,,0.00,VWS V14.01,2013-03-13 04:41:00,
2013-03-13 00:43:00,28.9,26.8,29.93,West,261,11.4,11.7,92,0.00,,,0.00,VWS V14.01,2013-03-13 04:43:00,
2013-03-13 00:46:00,28.1,25.9,29.93,WSW,254,7.8,11.7,91,0.00,,,0.00,VWS V14.01,2013-03-13 04:46:00,
2013-03-13 00:47:00,28.5,26.3,29.93,WSW,252,7.8,11.7,91,0.00,,,0.00,VWS V14.01,2013-03-13 04:47:00,
2013-03-13 00:49:00,28.1,26.0,29.94,SW,235,7.1,11.7,92,0.00,,,0.00,VWS V14.01,2013-03-13 04:49:00,
2013-03-13 00:51:00,28.5,26.3,29.93,WSW,246,10.4,11.7,91,0.00,,,0.00,VWS V14.01,2013-03-13 04:51:00,
2013-03-13 00:53:00,28.2,25.9,29.93,WSW,248,9.2,11.7,91,0.00,,,0.00,VWS V14.01,2013-03-13 04:53:00,
2013-03-13 00:56:00,28.5,26.1,29.94,West,261,8.7,12.3,91,0.00,,,0.00,VWS V14.01,2013-03-13 04:56:00,
2013-03-13 00:57:00,29.2,26.7,29.93,West,262,11.6,12.3,90,0.00,,,0.00,VWS V14.01,2013-03-13 04:57:00,
2013-03-13 00:58:00,29.1,25.4,29.93,WSW,252,11.6,12.3,86,0.00,,,0.00,VWS V14.01,2013-03-13 04:58:00,
2013-03-13 00:59:00,28.7,25.9,29.93,WSW,250,8.7,12.3,89,0.00,,,0.00,VWS V14.01,2013-03-13 04:59:00,
2013-03-13 01:02:00,28.8,25.9,29.98,West,261,10.9,10.9,89,0.00,,,0.00,VWS V14.01,2013-03-13 05:02:00,
2013-03-13 01:05:00,28.9,25.8,29.92,West,262,10.9,12.8,88,0.00,,,0.00,VWS V14.01,2013-03-13 05:05:00,
2013-03-13 01:08:00,29.0,25.7,29.92,West,261,10.0,10.9,87,0.00,,,0.00,VWS V14.01,2013-03-13 05:08:00,
2013-03-13 01:10:00,28.2,24.9,29.93,West,270,9.2,9.2,87,0.00,,,0.00,VWS V14.01,2013-03-13 05:10:00,
2013-03-13 01:11:00,29.0,25.6,29.93,WSW,256,10.7,10.7,87,0.00,,,0.00,VWS V14.01,2013-03-13 05:11:00,
2013-03-13 01:12:00,28.8,25.2,29.93,West,261,8.8,10.9,86,0.00,,,0.00,VWS V14.01,2013-03-13 05:12:00,
2013-03-13 01:14:00,28.7,25.0,29.93,WSW,244,12.3,12.3,86,0.00,,,0.00,VWS V14.01,2013-03-13 05:14:00,
2013-03-13 01:15:00,29.6,25.7,29.93,West,269,15.5,15.5,85,0.00,,,0.00,VWS V14.01,2013-03-13 05:15:00,
2013-03-13 01:17:00,28.4,24.1,29.93,WSW,257,7.5,7.5,84,0.00,,,0.00,VWS V14.01,2013-03-13 05:17:00,
2013-03-13 01:18:00,28.8,24.3,29.93,WSW,254,11.2,15.0,83,0.00,,,0.00,VWS V14.01,2013-03-13 05:18:00,
2013-03-13 01:20:00,29.2,24.7,29.93,WSW,250,14.3,14.3,83,0.00,,,0.00,VWS V14.01,2013-03-13 05:20:00,
2013-03-13 01:21:00,29.3,24.6,29.93,WSW,257,9.9,14.3,82,0.00,,,0.00,VWS V14.01,2013-03-13 05:21:00,
2013-03-13 01:22:00,28.4,23.5,29.93,WSW,252,11.2,13.8,82,0.00,,,0.00,VWS V14.01,2013-03-13 05:22:00,
2013-03-13 01:23:00,29.0,24.1,29.98,WSW,247,14.1,14.5,82,0.00,,,0.00,VWS V14.01,2013-03-13 05:23:00,
2013-03-13 01:26:00,29.0,24.1,29.93,West,268,10.4,10.4,82,0.00,,,0.00,VWS V14.01,2013-03-13 05:26:00,
2013-03-13 01:27:00,29.5,24.7,29.93,WSW,257,12.3,12.3,82,0.00,,,0.00,VWS V14.01,2013-03-13 05:27:00,
2013-03-13 01:28:00,29.1,24.3,29.93,West,271,11.7,12.3,82,0.00,,,0.00,VWS V14.01,2013-03-13 05:28:00,
2013-03-13 01:29:00,28.8,24.2,29.93,West,273,8.5,11.7,82,0.00,,,0.00,VWS V14.01,2013-03-13 05:29:00,
2013-03-13 01:31:00,28.9,24.2,29.93,West,263,10.9,14.5,82,0.00,,,0.00,VWS V14.01,2013-03-13 05:31:00,
2013-03-13 01:33:00,29.3,24.6,29.94,West,259,10.5,11.4,82,0.00,,,0.00,VWS V14.01,2013-03-13 05:33:00,
2013-03-13 01:34:00,28.9,24.3,29.93,West,275,10.7,11.7,82,0.00,,,0.00,VWS V14.01,2013-03-13 05:34:00,
2013-03-13 01:37:00,29.0,24.2,29.92,West,269,9.9,13.1,82,0.00,,,0.00,VWS V14.01,2013-03-13 05:37:00,
2013-03-13 01:38:00,29.4,24.6,29.92,West,271,12.6,12.6,82,0.00,,,0.00,VWS V14.01,2013-03-13 05:38:00,
2013-03-13 01:39:00,29.2,24.4,29.92,WSW,249,11.9,11.9,82,0.00,,,0.00,VWS V14.01,2013-03-13 05:39:00,
2013-03-13 01:42:00,29.1,24.5,29.93,WNW,282,12.1,15.7,82,0.00,,,0.00,VWS V14.01,2013-03-13 05:42:00,
2013-03-13 01:43:00,29.3,24.7,29.93,WSW,253,11.9,12.1,83,0.00,,,0.00,VWS V14.01,2013-03-13 05:43:00,
2013-03-13 01:45:00,29.2,24.7,29.93,West,270,16.4,16.4,83,0.00,,,0.00,VWS V14.01,2013-03-13 05:45:00,
2013-03-13 01:46:00,29.1,24.6,29.92,West,272,12.1,16.4,83,0.00,,,0.00,VWS V14.01,2013-03-13 05:46:00,
2013-03-13 01:48:00,28.8,24.4,29.93,West,269,12.3,13.3,83,0.00,,,0.00,VWS V14.01,2013-03-13 05:48:00,
2013-03-13 01:49:00,28.8,24.3,29.92,West,271,11.6,13.6,83,0.00,,,0.00,VWS V14.01,2013-03-13 05:49:00,
2013-03-13 01:51:00,29.4,25.1,29.92,WSW,247,12.6,12.6,84,0.00,,,0.00,VWS V14.01,2013-03-13 05:51:00,
2013-03-13 01:52:00,29.4,25.1,29.92,WSW,247,12.6,12.6,84,0.00,,,0.00,VWS V14.01,2013-03-13 05:52:00,
2013-03-13 01:54:00,29.0,24.9,29.92,West,267,12.6,14.6,84,0.00,,,0.00,VWS V14.01,2013-03-13 05:54:00,
2013-03-13 01:55:00,28.5,24.4,29.93,WSW,257,10.5,12.6,84,0.00,,,0.00,VWS V14.01,2013-03-13 05:55:00,
2013-03-13 01:57:00,29.0,25.0,29.92,WSW,256,13.1,13.1,85,0.00,,,0.00,VWS V14.01,2013-03-13 05:57:00,
2013-03-13 01:58:00,28.0,24.0,29.93,West,274,10.0,10.0,84,0.00,,,0.00,VWS V14.01,2013-03-13 05:58:00,
2013-03-13 01:59:00,28.5,24.5,29.93,WSW,255,12.1,12.1,85,0.00,,,0.00,VWS V14.01,2013-03-13 05:59:00,
2013-03-13 02:00:00,27.9,23.8,29.93,West,264,7.6,7.6,84,0.00,,,0.00,VWS V14.01,2013-03-13 06:00:00,
2013-03-13 02:03:00,27.7,24.1,29.93,West,259,9.9,9.9,86,0.00,,,0.00,VWS V14.01,2013-03-13 06:03:00,
2013-03-13 02:04:00,27.6,24.1,29.92,West,268,8.7,9.9,87,0.00,,,0.00,VWS V14.01,2013-03-13 06:04:00,
2013-03-13 02:05:00,28.0,24.6,29.92,West,266,10.0,10.0,87,0.00,,,0.00,VWS V14.01,2013-03-13 06:05:00,
2013-03-13 02:06:00,27.9,24.6,29.93,WSW,252,9.2,11.1,87,0.00,,,0.00,VWS V14.01,2013-03-13 06:06:00,
2013-03-13 02:09:00,27.5,24.1,29.93,West,260,8.7,9.3,87,0.00,,,0.00,VWS V14.01,2013-03-13 06:09:00,
2013-03-13 02:10:00,27.4,23.9,29.93,WSW,257,8.0,8.7,87,0.00,,,0.00,VWS V14.01,2013-03-13 06:10:00,
2013-03-13 02:11:00,27.5,24.2,29.92,WSW,256,8.7,8.7,87,0.00,,,0.00,VWS V14.01,2013-03-13 06:11:00,
2013-03-13 02:16:00,28.5,24.5,29.93,West,271,10.2,10.2,85,0.00,,,0.00,VWS V14.01,2013-03-13 06:16:00,
2013-03-13 02:18:00,27.6,23.4,29.93,West,275,10.2,11.7,84,0.00,,,0.00,VWS V14.01,2013-03-13 06:18:00,
2013-03-13 02:21:00,27.7,23.1,29.93,WSW,253,11.9,13.8,83,0.00,,,0.00,VWS V14.01,2013-03-13 06:21:00,
2013-03-13 02:23:00,28.1,23.3,29.93,West,273,11.1,11.9,82,0.00,,,0.00,VWS V14.01,2013-03-13 06:23:00,
2013-03-13 02:24:00,28.4,23.3,29.98,West,268,12.8,14.8,81,0.00,,,0.00,VWS V14.01,2013-03-13 06:24:00,
2013-03-13 02:28:00,28.0,22.9,29.93,WSW,258,12.8,12.8,81,0.00,,,0.00,VWS V14.01,2013-03-13 06:28:00,
2013-03-13 02:29:00,27.8,22.7,29.93,WSW,257,11.9,11.9,81,0.00,,,0.00,VWS V14.01,2013-03-13 06:29:00,
2013-03-13 02:31:00,27.9,23.1,29.93,West,266,11.2,11.2,82,0.00,,,0.00,VWS V14.01,2013-03-13 06:31:00,
2013-03-13 02:34:00,28.0,23.1,29.93,West,264,15.7,15.7,82,0.00,,,0.00,VWS V14.01,2013-03-13 06:34:00,
2013-03-13 02:35:00,27.5,22.5,29.93,West,269,14.0,15.7,81,0.00,,,0.00,VWS V14.01,2013-03-13 06:35:00,
2013-03-13 02:36:00,27.6,22.5,29.93,West,275,11.4,15.2,81,0.00,,,0.00,VWS V14.01,2013-03-13 06:36:00,
2013-03-13 02:39:00,27.9,22.9,29.93,West,265,14.6,16.0,81,0.00,,,0.00,VWS V14.01,2013-03-13 06:39:00,
2013-03-13 02:40:00,27.5,22.4,29.93,West,274,10.4,14.6,81,0.00,,,0.00,VWS V14.01,2013-03-13 06:40:00,
2013-03-13 02:42:00,28.0,23.0,29.93,West,269,10.5,10.5,81,0.00,,,0.00,VWS V14.01,2013-03-13 06:42:00,
2013-03-13 02:44:00,28.1,23.0,29.92,West,270,17.0,17.0,81,0.00,,,0.00,VWS V14.01,2013-03-13 06:44:00,
2013-03-13 02:45:00,27.8,22.8,29.92,West,262,10.4,17.0,81,0.00,,,0.00,VWS V14.01,2013-03-13 06:45:00,
2013-03-13 02:46:00,28.0,23.1,29.92,WNW,282,14.1,14.1,81,0.00,,,0.00,VWS V14.01,2013-03-13 06:46:00,
2013-03-13 02:48:00,27.8,23.0,29.93,WSW,257,12.6,12.6,82,0.00,,,0.00,VWS V14.01,2013-03-13 06:48:00,
2013-03-13 02:49:00,27.8,23.0,29.93,WSW,258,11.7,17.6,82,0.00,,,0.00,VWS V14.01,2013-03-13 06:49:00,
2013-03-13 02:51:00,27.8,23.3,29.93,West,260,12.8,12.8,83,0.00,,,0.00,VWS V14.01,2013-03-13 06:51:00,
2013-03-13 02:53:00,27.9,23.4,29.92,West,261,11.1,11.2,83,0.00,,,0.00,VWS V14.01,2013-03-13 06:53:00,
2013-03-13 02:54:00,28.0,23.6,29.93,West,265,15.2,15.2,83,0.00,,,0.00,VWS V14.01,2013-03-13 06:54:00,
2013-03-13 02:55:00,28.1,23.6,29.93,West,271,12.9,15.2,83,0.00,,,0.00,VWS V14.01,2013-03-13 06:55:00,
2013-03-13 02:58:00,28.2,23.8,29.93,West,281,16.2,16.2,83,0.00,,,0.00,VWS V14.01,2013-03-13 06:58:00,
2013-03-13 03:00:00,27.9,23.5,29.93,WNW,284,12.9,12.9,83,0.00,,,0.00,VWS V14.01,2013-03-13 07:00:00,
2013-03-13 03:05:00,28.2,24.0,29.92,West,264,14.8,14.8,84,0.00,,,0.00,VWS V14.01,2013-03-13 07:05:00,
2013-03-13 03:06:00,28.3,24.1,29.92,West,275,13.1,13.3,84,0.00,,,0.00,VWS V14.01,2013-03-13 07:06:00,
2013-03-13 03:07:00,28.2,23.9,29.92,WNW,295,12.6,13.1,83,0.00,,,0.00,VWS V14.01,2013-03-13 07:07:00,
2013-03-13 03:11:00,28.3,24.0,29.92,West,275,15.8,15.8,83,0.00,,,0.00,VWS V14.01,2013-03-13 07:11:00,
2013-03-13 03:12:00,28.1,23.8,29.92,West,270,14.6,15.8,83,0.00,,,0.00,VWS V14.01,2013-03-13 07:12:00,
2013-03-13 03:13:00,28.1,23.9,29.92,WNW,287,12.3,15.8,84,0.00,,,0.00,VWS V14.01,2013-03-13 07:13:00,
2013-03-13 03:17:00,28.3,24.4,29.92,WNW,289,15.8,15.8,85,0.00,,,0.00,VWS V14.01,2013-03-13 07:17:00,
2013-03-13 03:18:00,28.1,24.2,29.91,WNW,283,10.7,15.8,85,0.00,,,0.00,VWS V14.01,2013-03-13 07:18:00,
2013-03-13 03:20:00,28.1,24.5,29.93,WNW,292,12.3,16.7,86,0.00,,,0.00,VWS V14.01,2013-03-13 07:20:00,
2013-03-13 03:22:00,27.9,24.6,29.92,West,272,14.6,14.6,87,0.00,,,0.00,VWS V14.01,2013-03-13 07:22:00,
2013-03-13 03:23:00,27.9,24.9,29.92,WNW,286,12.8,14.6,88,0.00,,,0.00,VWS V14.01,2013-03-13 07:23:00,
2013-03-13 03:24:00,27.8,24.8,29.93,WNW,297,15.3,15.3,88,0.00,,,0.00,VWS V14.01,2013-03-13 07:24:00,
2013-03-13 03:25:00,28.0,25.1,29.93,West,260,12.6,15.3,89,0.00,,,0.00,VWS V14.01,2013-03-13 07:25:00,
2013-03-13 03:28:00,28.0,25.1,29.93,West,278,13.3,15.7,89,0.00,,,0.00,VWS V14.01,2013-03-13 07:28:00,
2013-03-13 03:29:00,27.8,25.0,29.92,West,280,15.3,15.3,89,0.00,,,0.00,VWS V14.01,2013-03-13 07:29:00,
2013-03-13 03:32:00,27.8,25.2,29.93,WNW,286,15.0,15.0,90,0.00,,,0.00,VWS V14.01,2013-03-13 07:32:00,
2013-03-13 03:34:00,28.0,25.5,29.92,WNW,296,17.4,17.4,90,0.00,,,0.00,VWS V14.01,2013-03-13 07:34:00,
2013-03-13 03:35:00,27.8,25.1,29.92,WNW,296,12.3,17.4,89,0.00,,,0.00,VWS V14.01,2013-03-13 07:35:00,
2013-03-13 03:36:00,27.8,25.2,29.94,NW,313,14.8,14.8,90,0.00,,,0.00,VWS V14.01,2013-03-13 07:36:00,
2013-03-13 03:37:00,27.8,25.1,29.93,NW,311,13.6,13.6,90,0.00,,,0.00,VWS V14.01,2013-03-13 07:37:00,
2013-03-13 03:40:00,27.8,25.0,29.93,WNW,292,13.6,13.6,89,0.00,,,0.00,VWS V14.01,2013-03-13 07:40:00,
2013-03-13 03:41:00,27.8,24.9,29.93,West,264,14.6,14.6,89,0.00,,,0.00,VWS V14.01,2013-03-13 07:41:00,
2013-03-13 03:42:00,27.8,24.8,29.93,West,277,14.0,14.0,88,0.00,,,0.00,VWS V14.01,2013-03-13 07:42:00,
2013-03-13 03:45:00,27.7,24.6,29.93,WNW,294,13.6,15.2,88,0.00,,,0.00,VWS V14.01,2013-03-13 07:45:00,
2013-03-13 03:46:00,27.5,24.4,29.93,West,270,10.2,11.4,88,0.00,,,0.00,VWS V14.01,2013-03-13 07:46:00,
2013-03-13 03:47:00,27.8,24.6,29.93,WNW,284,16.2,16.2,88,0.00,,,0.00,VWS V14.01,2013-03-13 07:47:00,
2013-03-13 03:50:00,27.6,24.2,29.94,West,281,12.6,12.6,87,0.00,,,0.00,VWS V14.01,2013-03-13 07:50:00,
2013-03-13 03:51:00,27.3,23.9,29.93,West,279,11.2,12.6,87,0.00,,,0.00,VWS V14.01,2013-03-13 07:51:00,
2013-03-13 03:52:00,27.2,23.9,29.93,WNW,295,11.4,11.4,87,0.00,,,0.00,VWS V14.01,2013-03-13 07:52:00,
2013-03-13 03:56:00,27.6,24.6,29.93,WNW,285,12.4,12.4,88,0.00,,,0.00,VWS V14.01,2013-03-13 07:56:00,
2013-03-13 03:57:00,27.3,24.3,29.94,WNW,284,11.2,12.4,88,0.00,,,0.00,VWS V14.01,2013-03-13 07:57:00,
2013-03-13 03:58:00,27.3,24.3,29.93,WNW,290,9.3,9.3,88,0.00,,,0.00,VWS V14.01,2013-03-13 07:58:00,
2013-03-13 04:00:00,27.5,24.7,29.94,West,271,8.5,9.9,89,0.00,,,0.00,VWS V14.01,2013-03-13 08:00:00,
2013-03-13 04:01:00,27.7,24.9,29.94,WNW,291,11.7,11.7,89,0.00,,,0.00,VWS V14.01,2013-03-13 08:01:00,
2013-03-13 04:02:00,27.7,24.9,29.93,WNW,287,10.5,11.7,89,0.00,,,0.00,VWS V14.01,2013-03-13 08:02:00,
2013-03-13 04:03:00,27.4,24.5,29.93,WNW,289,8.8,10.0,89,0.00,,,0.00,VWS V14.01,2013-03-13 08:03:00,
2013-03-13 04:08:00,27.5,24.7,29.93,WNW,286,11.6,11.6,89,0.00,,,0.00,VWS V14.01,2013-03-13 08:08:00,
2013-03-13 04:10:00,27.6,24.2,29.93,WNW,295,12.8,14.6,87,0.00,,,0.00,VWS V14.01,2013-03-13 08:10:00,
2013-03-13 04:14:00,27.3,23.5,30.00,West,269,12.1,14.3,85,0.00,,,0.00,VWS V14.01,2013-03-13 08:14:00,
2013-03-13 04:15:00,27.3,23.2,29.94,WNW,282,12.3,12.9,84,0.00,,,0.00,VWS V14.01,2013-03-13 08:15:00,
2013-03-13 04:20:00,27.4,22.4,29.94,WNW,284,13.3,13.3,81,0.00,,,0.00,VWS V14.01,2013-03-13 08:20:00,
2013-03-13 04:21:00,27.4,22.4,29.94,WNW,296,13.1,13.8,81,0.00,,,0.00,VWS V14.01,2013-03-13 08:21:00,
2013-03-13 04:23:00,27.4,22.6,29.98,NW,308,12.9,12.9,82,0.00,,,0.00,VWS V14.01,2013-03-13 08:23:00,
2013-03-13 04:26:00,27.5,22.8,29.95,NW,308,14.6,14.6,82,0.00,,,0.00,VWS V14.01,2013-03-13 08:26:00,
2013-03-13 04:27:00,27.1,22.3,29.94,WNW,288,11.2,14.6,82,0.00,,,0.00,VWS V14.01,2013-03-13 08:27:00,
2013-03-13 04:28:00,27.0,22.3,29.94,WNW,292,9.0,9.0,82,0.00,,,0.00,VWS V14.01,2013-03-13 08:28:00,
2013-03-13 04:29:00,27.2,22.6,29.94,WNW,288,10.5,11.2,83,0.00,,,0.00,VWS V14.01,2013-03-13 08:29:00,
2013-03-13 04:32:00,27.1,22.8,29.94,WNW,289,9.5,9.5,84,0.00,,,0.00,VWS V14.01,2013-03-13 08:32:00,
2013-03-13 04:33:00,27.1,22.9,29.94,WNW,286,9.3,9.5,84,0.00,,,0.00,VWS V14.01,2013-03-13 08:33:00,
2013-03-13 04:35:00,27.0,22.9,29.93,West,281,10.2,10.2,84,0.00,,,0.00,VWS V14.01,2013-03-13 08:35:00,
2013-03-13 04:38:00,27.1,23.2,29.93,WNW,290,10.2,10.2,85,0.00,,,0.00,VWS V14.01,2013-03-13 08:38:00,
2013-03-13 04:39:00,27.3,23.4,29.94,West,272,11.4,11.4,85,0.00,,,0.00,VWS V14.01,2013-03-13 08:39:00,
2013-03-13 04:40:00,27.3,23.4,29.93,WNW,292,11.2,11.4,85,0.00,,,0.00,VWS V14.01,2013-03-13 08:40:00,
2013-03-13 04:42:00,27.2,23.4,29.93,WNW,285,12.6,12.6,85,0.00,,,0.00,VWS V14.01,2013-03-13 08:42:00,
2013-03-13 04:44:00,27.3,23.6,29.93,NW,304,11.6,11.6,86,0.00,,,0.00,VWS V14.01,2013-03-13 08:44:00,
2013-03-13 04:45:00,27.3,23.6,29.93,WNW,286,12.1,12.1,86,0.00,,,0.00,VWS V14.01,2013-03-13 08:45:00,
2013-03-13 04:47:00,27.1,23.5,29.93,West,281,10.5,10.5,86,0.00,,,0.00,VWS V14.01,2013-03-13 08:47:00,
2013-03-13 04:50:00,27.3,23.6,29.93,West,273,10.7,10.7,86,0.00,,,0.00,VWS V14.01,2013-03-13 08:50:00,
2013-03-13 04:53:00,27.0,23.5,29.93,WNW,295,11.2,11.2,86,0.00,,,0.00,VWS V14.01,2013-03-13 08:53:00,
2013-03-13 04:55:00,27.3,23.8,29.94,WNW,290,11.1,11.1,87,0.00,,,0.00,VWS V14.01,2013-03-13 08:55:00,
2013-03-13 04:56:00,27.1,23.6,29.93,West,281,10.4,10.4,86,0.00,,,0.00,VWS V14.01,2013-03-13 08:56:00,
2013-03-13 04:58:00,27.2,23.6,29.93,WNW,282,10.9,10.9,86,0.00,,,0.00,VWS V14.01,2013-03-13 08:58:00,
2013-03-13 05:01:00,26.9,23.5,29.93,WNW,300,8.1,11.6,87,0.00,,,0.00,VWS V14.01,2013-03-13 09:01:00,
2013-03-13 05:02:00,27.2,23.9,29.94,West,278,8.8,11.6,87,0.00,,,0.00,VWS V14.01,2013-03-13 09:02:00,
2013-03-13 05:04:00,27.1,23.9,29.93,WNW,293,9.0,12.6,88,0.00,,,0.00,VWS V14.01,2013-03-13 09:04:00,
2013-03-13 05:07:00,27.2,24.4,29.93,West,278,8.7,12.6,89,0.00,,,0.00,VWS V14.01,2013-03-13 09:07:00,
2013-03-13 05:08:00,27.0,24.3,29.93,West,261,6.9,12.6,89,0.00,,,0.00,VWS V14.01,2013-03-13 09:08:00,
2013-03-13 05:09:00,27.1,24.5,29.94,West,275,9.0,12.6,90,0.00,,,0.00,VWS V14.01,2013-03-13 09:09:00,
2013-03-13 05:12:00,27.0,24.6,29.94,West,275,7.3,12.6,91,0.00,,,0.00,VWS V14.01,2013-03-13 09:12:00,
2013-03-13 05:13:00,27.2,24.8,29.93,West,272,7.5,12.6,90,0.00,,,0.00,VWS V14.01,2013-03-13 09:13:00,
2013-03-13 05:14:00,27.1,24.6,29.94,WNW,288,7.6,12.6,90,0.00,,,0.00,VWS V14.01,2013-03-13 09:14:00,
2013-03-13 05:18:00,27.3,24.7,29.94,WNW,286,11.9,12.6,90,0.00,,,0.00,VWS V14.01,2013-03-13 09:18:00,
2013-03-13 05:20:00,27.1,24.2,29.94,West,272,11.1,14.0,89,0.00,,,0.00,VWS V14.01,2013-03-13 09:20:00,
2013-03-13 05:24:00,27.4,24.3,29.93,WNW,286,12.1,14.5,88,0.00,,,0.00,VWS V14.01,2013-03-13 09:24:00,
2013-03-13 05:25:00,27.2,23.8,29.94,West,275,13.3,14.5,87,0.00,,,0.00,VWS V14.01,2013-03-13 09:25:00,
2013-03-13 05:26:00,27.0,23.6,29.94,West,279,10.0,14.5,87,0.00,,,0.00,VWS V14.01,2013-03-13 09:26:00,
2013-03-13 05:29:00,27.0,23.6,29.94,WNW,285,9.7,14.5,87,0.00,,,0.00,VWS V14.01,2013-03-13 09:29:00,
2013-03-13 05:30:00,26.7,23.2,29.94,West,281,9.3,14.5,87,0.00,,,0.00,VWS V14.01,2013-03-13 09:30:00,
2013-03-13 05:31:00,26.4,22.9,29.94,West,269,6.8,14.5,86,0.00,,,0.00,VWS V14.01,2013-03-13 09:31:00,
2013-03-13 05:32:00,26.4,22.9,29.94,West,276,7.3,14.5,87,0.00,,,0.00,VWS V14.01,2013-03-13 09:32:00,
2013-03-13 05:34:00,26.5,23.1,29.94,West,276,8.8,14.5,87,0.00,,,0.00,VWS V14.01,2013-03-13 09:34:00,
2013-03-13 05:35:00,26.7,23.4,29.94,West,267,10.2,14.5,87,0.00,,,0.00,VWS V14.01,2013-03-13 09:35:00,
2013-03-13 05:38:00,26.7,23.4,29.95,West,262,8.1,14.5,87,0.00,,,0.00,VWS V14.01,2013-03-13 09:38:00,
2013-03-13 05:39:00,27.0,23.7,29.95,West,268,10.7,14.5,87,0.00,,,0.00,VWS V14.01,2013-03-13 09:39:00,
2013-03-13 05:40:00,27.0,23.7,29.95,West,268,10.7,14.5,87,0.00,,,0.00,VWS V14.01,2013-03-13 09:40:00,
2013-03-13 05:42:00,27.0,23.8,29.95,West,260,12.4,14.5,88,0.00,,,0.00,VWS V14.01,2013-03-13 09:42:00,
2013-03-13 05:45:00,26.9,23.7,29.95,West,260,10.2,14.5,87,0.00,,,0.00,VWS V14.01,2013-03-13 09:45:00,
2013-03-13 05:47:00,27.0,23.8,29.95,West,270,10.5,14.5,87,0.00,,,0.00,VWS V14.01,2013-03-13 09:47:00,
2013-03-13 05:48:00,26.9,23.4,29.95,WNW,282,12.3,14.5,87,0.00,,,0.00,VWS V14.01,2013-03-13 09:48:00,
2013-03-13 05:50:00,27.0,23.4,29.94,West,268,13.6,14.5,86,0.00,,,0.00,VWS V14.01,2013-03-13 09:50:00,
2013-03-13 05:52:00,27.2,23.3,29.94,WSW,254,14.8,14.8,85,0.00,,,0.00,VWS V14.01,2013-03-13 09:52:00,
2013-03-13 05:54:00,27.0,23.0,29.94,West,272,13.1,14.8,85,0.00,,,0.00,VWS V14.01,2013-03-13 09:54:00,
2013-03-13 05:55:00,27.2,23.0,29.94,West,272,12.8,14.8,84,0.00,,,0.00,VWS V14.01,2013-03-13 09:55:00,
2013-03-13 05:56:00,26.9,22.8,29.94,West,276,11.4,14.8,84,0.00,,,0.00,VWS V14.01,2013-03-13 09:56:00,
2013-03-13 05:58:00,27.0,22.7,29.95,West,274,12.9,16.5,84,0.00,,,0.00,VWS V14.01,2013-03-13 09:58:00,
2013-03-13 06:01:00,26.7,22.7,29.95,West,278,9.7,16.5,85,0.00,,,0.00,VWS V14.01,2013-03-13 10:01:00,
2013-03-13 06:02:00,26.7,22.7,29.95,West,278,9.7,9.7,85,0.00,,,0.00,VWS V14.01,2013-03-13 10:02:00,
2013-03-13 06:04:00,27.0,22.8,29.95,West,269,14.5,14.5,84,0.00,,,0.00,VWS V14.01,2013-03-13 10:04:00,
2013-03-13 06:08:00,27.0,22.9,29.94,West,271,12.6,17.4,84,0.00,,,0.00,VWS V14.01,2013-03-13 10:08:00,
2013-03-13 06:09:00,26.8,22.9,29.95,West,269,8.5,11.4,85,0.00,,,0.00,VWS V14.01,2013-03-13 10:09:00,
2013-03-13 06:10:00,26.7,22.9,29.95,West,269,10.7,10.7,85,0.00,,,0.00,VWS V14.01,2013-03-13 10:10:00,
2013-03-13 06:13:00,26.6,23.0,29.95,West,263,9.3,9.9,86,0.00,,,0.00,VWS V14.01,2013-03-13 10:13:00,
2013-03-13 06:14:00,27.0,23.4,29.95,West,265,12.8,12.8,86,0.00,,,0.00,VWS V14.01,2013-03-13 10:14:00,
2013-03-13 06:15:00,26.8,23.3,29.95,West,274,9.2,12.4,86,0.00,,,0.00,VWS V14.01,2013-03-13 10:15:00,
2013-03-13 06:16:00,26.8,23.4,29.96,West,281,14.3,14.3,87,0.00,,,0.00,VWS V14.01,2013-03-13 10:16:00,
2013-03-13 06:18:00,26.8,23.4,29.95,West,267,10.2,13.8,87,0.00,,,0.00,VWS V14.01,2013-03-13 10:18:00,
2013-03-13 06:19:00,26.6,20.9,29.95,West,271,10.7,10.7,78,0.00,,,0.00,VWS V14.01,2013-03-13 10:19:00,
2013-03-13 06:20:00,26.7,23.5,29.95,West,271,12.3,12.3,87,0.00,,,0.00,VWS V14.01,2013-03-13 10:20:00,
2013-03-13 06:22:00,26.8,23.4,29.96,West,269,11.7,13.6,87,0.00,,,0.00,VWS V14.01,2013-03-13 10:22:00,
2013-03-13 06:24:00,26.7,23.3,29.95,West,264,13.6,13.6,87,0.00,,,0.00,VWS V14.01,2013-03-13 10:24:00,
2013-03-13 06:27:00,26.8,23.4,29.95,West,270,13.1,13.1,87,0.00,,,0.00,VWS V14.01,2013-03-13 10:27:00,
2013-03-13 06:29:00,26.8,23.4,29.95,West,272,12.9,12.9,87,0.00,,,0.00,VWS V14.01,2013-03-13 10:29:00,
2013-03-13 06:30:00,26.9,23.4,29.96,West,259,15.7,15.7,87,0.00,,,0.00,VWS V14.01,2013-03-13 10:30:00,
2013-03-13 06:32:00,26.5,23.0,29.96,WNW,283,9.5,9.5,86,0.00,,,0.00,VWS V14.01,2013-03-13 10:32:00,
2013-03-13 06:33:00,26.7,23.3,30.01,West,276,10.2,10.2,87,0.00,,,0.00,VWS V14.01,2013-03-13 10:33:00,
2013-03-13 06:34:00,26.9,23.3,29.96,WNW,291,16.0,16.0,86,0.00,,,0.00,VWS V14.01,2013-03-13 10:34:00,
2013-03-13 06:37:00,26.8,22.1,29.96,West,265,9.9,12.6,82,0.00,,,0.00,VWS V14.01,2013-03-13 10:37:00,
2013-03-13 06:38:00,26.7,23.1,29.96,West,279,10.9,10.9,86,0.00,,,0.00,VWS V14.01,2013-03-13 10:38:00,
2013-03-13 06:42:00,26.7,23.2,30.01,West,269,12.9,12.9,86,0.00,,,0.00,VWS V14.01,2013-03-13 10:42:00,
2013-03-13 06:44:00,26.9,23.0,29.96,WNW,282,12.4,14.5,85,0.00,,,0.00,VWS V14.01,2013-03-13 10:44:00,
2013-03-13 06:47:00,26.8,22.9,29.96,WSW,258,10.7,13.5,85,0.00,,,0.00,VWS V14.01,2013-03-13 10:47:00,
2013-03-13 06:50:00,27.0,23.0,29.96,West,273,11.4,14.1,85,0.00,,,0.00,VWS V14.01,2013-03-13 10:50:00,
2013-03-13 06:52:00,26.9,22.8,29.96,West,269,11.2,15.5,84,0.00,,,0.00,VWS V14.01,2013-03-13 10:52:00,
2013-03-13 06:55:00,27.0,22.5,29.96,West,269,12.9,15.7,83,0.00,,,0.00,VWS V14.01,2013-03-13 10:55:00,
2013-03-13 06:57:00,27.0,22.3,29.96,West,265,15.5,17.4,82,0.00,,,0.00,VWS V14.01,2013-03-13 10:57:00,
2013-03-13 06:58:00,26.9,22.5,29.96,West,259,10.7,10.7,83,0.00,,,0.00,VWS V14.01,2013-03-13 10:58:00,
2013-03-13 07:02:00,26.9,22.1,29.97,West,272,13.8,15.0,82,0.00,,,0.00,VWS V14.01,2013-03-13 11:02:00,
2013-03-13 07:05:00,26.8,22.2,29.97,West,274,10.2,15.0,83,0.00,,,0.00,VWS V14.01,2013-03-13 11:05:00,
2013-03-13 07:08:00,27.0,22.5,29.97,WNW,285,19.4,19.4,83,0.00,,,0.00,VWS V14.01,2013-03-13 11:08:00,
2013-03-13 07:10:00,27.0,22.4,29.97,NW,310,15.2,19.4,83,0.00,,,0.00,VWS V14.01,2013-03-13 11:10:00,
2013-03-13 07:11:00,26.9,22.2,29.97,WNW,294,12.4,19.4,82,0.00,,,0.00,VWS V14.01,2013-03-13 11:11:00,
2013-03-13 07:14:00,26.9,21.8,29.97,NW,314,25.1,25.1,81,0.00,,,0.00,VWS V14.01,2013-03-13 11:14:00,
2013-03-13 07:15:00,26.7,21.5,29.97,NNW,327,13.8,25.1,80,0.00,,,0.00,VWS V14.01,2013-03-13 11:15:00,
2013-03-13 07:16:00,26.5,21.2,30.02,NNW,332,15.5,25.1,80,0.00,,,0.00,VWS V14.01,2013-03-13 11:16:00,
2013-03-13 07:17:00,26.4,21.1,29.98,WNW,298,10.7,25.1,80,0.00,,,0.00,VWS V14.01,2013-03-13 11:17:00,
2013-03-13 07:20:00,26.1,20.2,29.97,WNW,302,17.4,25.1,78,0.00,,,0.00,VWS V14.01,2013-03-13 11:20:00,
2013-03-13 07:22:00,25.9,20.0,30.03,NNW,331,14.0,25.1,78,0.00,,,0.00,VWS V14.01,2013-03-13 11:22:00,
2013-03-13 07:24:00,26.0,19.2,29.98,NW,311,17.7,25.1,75,0.00,,,0.00,VWS V14.01,2013-03-13 11:24:00,
2013-03-13 07:26:00,25.8,18.2,29.98,NNW,336,18.8,25.1,72,0.00,,,0.00,VWS V14.01,2013-03-13 11:26:00,
2013-03-13 07:28:00,25.7,18.1,29.99,NW,318,14.5,25.1,72,0.00,,,0.00,VWS V14.01,2013-03-13 11:28:00,
2013-03-13 07:29:00,25.6,18.0,29.99,NNW,332,11.9,25.1,72,0.00,,,0.00,VWS V14.01,2013-03-13 11:29:00,
2013-03-13 07:31:00,25.7,17.8,29.98,NW,325,20.8,25.1,72,0.00,,,0.00,VWS V14.01,2013-03-13 11:31:00,
2013-03-13 07:32:00,25.5,17.7,29.99,NNW,339,13.6,25.1,72,0.00,,,0.00,VWS V14.01,2013-03-13 11:32:00,
2013-03-13 07:35:00,25.4,17.5,30.04,NW,310,18.2,25.1,72,0.00,,,0.00,VWS V14.01,2013-03-13 11:35:00,
2013-03-13 07:36:00,25.6,17.7,29.99,NNW,332,12.1,25.1,72,0.00,,,0.00,VWS V14.01,2013-03-13 11:36:00,
2013-03-13 07:37:00,25.4,17.4,29.99,NNW,339,15.2,25.1,71,0.00,,,0.00,VWS V14.01,2013-03-13 11:37:00,
2013-03-13 07:38:00,25.6,17.6,29.99,NNW,327,17.9,25.1,71,0.00,,,0.00,VWS V14.01,2013-03-13 11:38:00,
2013-03-13 07:40:00,25.3,17.2,29.99,WNW,295,9.3,25.1,71,0.00,,,0.00,VWS V14.01,2013-03-13 11:40:00,
2013-03-13 07:43:00,25.4,17.4,29.99,NW,315,15.0,25.1,71,0.00,,,0.00,VWS V14.01,2013-03-13 11:43:00,
2013-03-13 07:44:00,25.3,17.4,29.99,NW,322,11.6,25.1,71,0.00,,,0.00,VWS V14.01,2013-03-13 11:44:00,
2013-03-13 07:46:00,25.4,17.2,29.99,NE,42,12.1,25.1,71,0.00,,,0.00,VWS V14.01,2013-03-13 11:46:00,
2013-03-13 07:47:00,25.5,17.1,29.99,NW,319,18.1,25.1,70,0.00,,,0.00,VWS V14.01,2013-03-13 11:47:00,
2013-03-13 07:48:00,25.2,16.9,29.99,NW,324,9.9,25.1,70,0.00,,,0.00,VWS V14.01,2013-03-13 11:48:00,
2013-03-13 07:50:00,25.3,17.1,29.99,NW,324,15.0,25.1,71,0.00,,,0.00,VWS V14.01,2013-03-13 11:50:00,
2013-03-13 07:52:00,25.4,17.1,30.00,NNW,335,10.5,25.1,70,0.00,,,0.00,VWS V14.01,2013-03-13 11:52:00,
2013-03-13 07:53:00,25.2,16.9,30.00,NW,306,10.9,25.1,70,0.00,,,0.00,VWS V14.01,2013-03-13 11:53:00,
2013-03-13 07:55:00,25.2,17.1,30.00,NNW,331,9.3,25.1,71,0.00,,,0.00,VWS V14.01,2013-03-13 11:55:00,
2013-03-13 07:58:00,25.1,16.5,29.99,NW,326,7.1,25.1,69,0.00,,,0.00,VWS V14.01,2013-03-13 11:58:00,
2013-03-13 07:59:00,25.1,16.6,30.00,NW,320,6.8,25.1,70,0.00,,,0.00,VWS V14.01,2013-03-13 11:59:00,
2013-03-13 08:00:00,25.1,16.9,29.99,NNW,339,10.0,25.1,70,0.00,,,0.00,VWS V14.01,2013-03-13 12:00:00,
2013-03-13 08:03:00,25.2,17.2,30.00,NW,308,13.1,13.1,71,0.00,,,0.00,VWS V14.01,2013-03-13 12:03:00,
2013-03-13 08:05:00,25.0,16.8,30.00,NW,326,10.0,10.0,71,0.00,,,0.00,VWS V14.01,2013-03-13 12:05:00,
2013-03-13 08:06:00,25.0,17.1,29.99,NW,323,6.1,10.5,71,0.00,,,0.00,VWS V14.01,2013-03-13 12:06:00,
2013-03-13 08:09:00,25.2,17.3,30.00,WNW,291,8.0,9.2,72,0.00,,,0.00,VWS V14.01,2013-03-13 12:09:00,
2013-03-13 08:10:00,25.2,17.3,30.00,North,0,7.6,7.6,71,0.00,,,0.00,VWS V14.01,2013-03-13 12:10:00,
2013-03-13 08:11:00,25.1,17.0,30.00,NW,321,10.4,10.4,71,0.00,,,0.00,VWS V14.01,2013-03-13 12:11:00,
2013-03-13 08:12:00,25.1,17.0,30.01,NNW,333,12.1,12.1,71,0.00,,,0.00,VWS V14.01,2013-03-13 12:12:00,
2013-03-13 08:14:00,25.1,16.6,30.01,North,349,10.9,12.8,70,0.00,,,0.00,VWS V14.01,2013-03-13 12:14:00,
2013-03-13 08:16:00,25.1,16.5,30.01,NW,315,7.3,11.9,69,0.00,,,0.00,VWS V14.01,2013-03-13 12:16:00,
2013-03-13 08:17:00,25.1,16.6,30.01,NW,314,9.9,9.9,70,0.00,,,0.00,VWS V14.01,2013-03-13 12:17:00,
2013-03-13 08:18:00,24.9,16.8,30.01,North,1,6.8,7.6,71,0.00,,,0.00,VWS V14.01,2013-03-13 12:18:00,
2013-03-13 08:20:00,24.9,16.8,30.01,NW,320,8.7,10.5,71,0.00,,,0.00,VWS V14.01,2013-03-13 12:20:00,
2013-03-13 08:23:00,24.7,16.8,30.01,North,360,6.9,9.3,71,0.00,,,0.00,VWS V14.01,2013-03-13 12:23:00,
2013-03-13 08:24:00,24.7,16.5,30.01,NW,321,9.5,9.5,71,0.00,,,0.00,VWS V14.01,2013-03-13 12:24:00,
2013-03-13 08:26:00,24.6,16.6,30.01,NW,326,8.5,9.9,71,0.00,,,0.00,VWS V14.01,2013-03-13 12:26:00,
2013-03-13 08:29:00,24.7,16.7,30.01,NW,319,10.0,11.6,71,0.00,,,0.00,VWS V14.01,2013-03-13 12:29:00,
2013-03-13 08:30:00,24.6,16.4,30.01,NW,319,9.9,12.4,71,0.00,,,0.00,VWS V14.01,2013-03-13 12:30:00,
2013-03-13 08:32:00,24.9,16.4,30.01,NNW,328,12.6,12.6,70,0.00,,,0.00,VWS V14.01,2013-03-13 12:32:00,
2013-03-13 08:34:00,24.8,16.5,30.01,NW,308,10.9,10.9,70,0.00,,,0.00,VWS V14.01,2013-03-13 12:34:00,
2013-03-13 08:35:00,24.6,16.4,30.02,NW,318,8.0,10.5,71,0.00,,,0.00,VWS V14.01,2013-03-13 12:35:00,
2013-03-13 08:36:00,24.5,16.5,30.02,NW,326,9.7,10.5,71,0.00,,,0.00,VWS V14.01,2013-03-13 12:36:00,
2013-03-13 08:38:00,24.8,16.1,30.02,NW,312,9.9,12.6,69,0.00,,,0.00,VWS V14.01,2013-03-13 12:38:00,
2013-03-13 08:39:00,24.9,15.9,30.02,NW,319,8.7,9.9,68,0.00,,,0.00,VWS V14.01,2013-03-13 12:39:00,
2013-03-13 08:41:00,25.4,15.9,30.02,NW,315,14.1,14.1,67,0.00,,,0.00,VWS V14.01,2013-03-13 12:41:00,
2013-03-13 08:42:00,25.9,16.5,30.03,NW,311,6.9,14.1,67,0.00,,,0.00,VWS V14.01,2013-03-13 12:42:00,
2013-03-13 08:43:00,25.7,15.8,30.03,NW,317,10.5,10.5,66,0.00,,,0.00,VWS V14.01,2013-03-13 12:43:00,
2013-03-13 08:46:00,25.6,15.1,30.03,NW,323,10.9,10.9,64,0.00,,,0.00,VWS V14.01,2013-03-13 12:46:00,
2013-03-13 08:47:00,25.6,15.3,30.02,NW,311,8.1,10.9,64,0.00,,,0.00,VWS V14.01,2013-03-13 12:47:00,
2013-03-13 08:50:00,25.7,15.9,30.02,NW,313,8.3,9.5,66,0.00,,,0.00,VWS V14.01,2013-03-13 12:50:00,
2013-03-13 08:52:00,25.3,15.7,30.03,NW,320,12.1,12.1,67,0.00,,,0.00,VWS V14.01,2013-03-13 12:52:00,
2013-03-13 08:53:00,25.9,16.7,30.03,NW,304,6.8,12.1,68,0.00,,,0.00,VWS V14.01,2013-03-13 12:53:00,
2013-03-13 08:55:00,25.7,16.0,30.02,NW,313,14.5,14.5,66,0.00,,,0.00,VWS V14.01,2013-03-13 12:55:00,
2013-03-13 08:56:00,25.5,15.9,30.02,NW,311,12.4,14.5,67,0.00,,,0.00,VWS V14.01,2013-03-13 12:56:00,
2013-03-13 08:57:00,25.3,16.0,30.02,WNW,295,14.3,14.3,67,0.00,,,0.00,VWS V14.01,2013-03-13 12:57:00,
2013-03-13 09:01:00,25.0,16.0,30.03,NNW,330,13.1,15.3,68,0.00,,,0.00,VWS V14.01,2013-03-13 13:01:00,
2013-03-13 09:02:00,25.0,16.0,30.03,NNW,330,13.1,15.3,68,0.00,,,0.00,VWS V14.01,2013-03-13 13:02:00,
2013-03-13 09:03:00,24.8,16.2,30.03,NW,312,15.8,15.8,69,0.00,,,0.00,VWS V14.01,2013-03-13 13:03:00,
2013-03-13 09:05:00,24.7,16.2,30.03,NW,311,14.6,15.0,70,0.00,,,0.00,VWS V14.01,2013-03-13 13:05:00,
2013-03-13 09:07:00,24.9,16.5,30.03,NW,312,14.0,14.3,70,0.00,,,0.00,VWS V14.01,2013-03-13 13:07:00,
2013-03-13 09:08:00,24.9,16.4,30.03,NW,315,15.5,15.5,70,0.00,,,0.00,VWS V14.01,2013-03-13 13:08:00,
2013-03-13 09:09:00,25.0,16.7,30.05,NW,317,12.6,15.5,70,0.00,,,0.00,VWS V14.01,2013-03-13 13:09:00,
2013-03-13 09:13:00,25.2,16.5,30.04,NW,319,11.9,11.9,69,0.00,,,0.00,VWS V14.01,2013-03-13 13:13:00,
2013-03-13 09:14:00,25.2,16.5,30.04,NW,322,13.5,14.5,69,0.00,,,0.00,VWS V14.01,2013-03-13 13:14:00,
2013-03-13 09:15:00,25.1,16.2,30.04,NW,322,15.8,15.8,69,0.00,,,0.00,VWS V14.01,2013-03-13 13:15:00,
2013-03-13 09:18:00,25.3,16.9,30.03,WNW,302,12.9,16.5,70,0.00,,,0.00,VWS V14.01,2013-03-13 13:18:00,
2013-03-13 09:20:00,25.1,16.8,30.04,NW,311,14.8,14.8,70,0.00,,,0.00,VWS V14.01,2013-03-13 13:20:00,
2013-03-13 09:21:00,25.1,16.9,30.04,NW,314,12.4,14.8,71,0.00,,,0.00,VWS V14.01,2013-03-13 13:21:00,
2013-03-13 09:25:00,25.2,17.5,30.03,NW,307,9.7,10.0,72,0.00,,,0.00,VWS V14.01,2013-03-13 13:25:00,
2013-03-13 09:26:00,25.1,17.3,30.03,NW,305,15.0,16.7,72,0.00,,,0.00,VWS V14.01,2013-03-13 13:26:00,
2013-03-13 09:30:00,25.0,17.4,30.04,NNW,331,17.2,17.2,72,0.00,,,0.00,VWS V14.01,2013-03-13 13:30:00,
2013-03-13 09:31:00,25.1,17.5,30.04,NW,317,15.3,17.2,72,0.00,,,0.00,VWS V14.01,2013-03-13 13:31:00,
2013-03-13 09:32:00,25.1,17.6,30.03,NW,319,20.6,20.6,73,0.00,,,0.00,VWS V14.01,2013-03-13 13:32:00,
2013-03-13 09:33:00,25.1,17.6,30.03,NW,319,20.6,20.6,73,0.00,,,0.00,VWS V14.01,2013-03-13 13:33:00,
2013-03-13 09:36:00,25.3,18.0,30.04,NW,315,15.7,15.7,73,0.00,,,0.00,VWS V14.01,2013-03-13 13:36:00,
2013-03-13 09:37:00,25.8,18.4,30.04,NNW,336,15.8,15.8,73,0.00,,,0.00,VWS V14.01,2013-03-13 13:37:00,
2013-03-13 09:38:00,25.7,18.1,30.04,NW,317,12.3,16.0,73,0.00,,,0.00,VWS V14.01,2013-03-13 13:38:00,
2013-03-13 09:41:00,26.8,19.4,30.04,NNW,332,7.5,14.3,73,0.00,,,0.00,VWS V14.01,2013-03-13 13:41:00,
2013-03-13 09:42:00,26.0,17.8,30.03,NNW,336,9.0,11.4,71,0.00,,,0.00,VWS V14.01,2013-03-13 13:42:00,
2013-03-13 09:44:00,25.7,17.5,30.05,NW,312,15.5,16.2,71,0.00,,,0.00,VWS V14.01,2013-03-13 13:44:00,
2013-03-13 09:46:00,25.3,16.2,30.04,NW,315,18.9,20.5,68,0.00,,,0.00,VWS V14.01,2013-03-13 13:46:00,
2013-03-13 09:48:00,25.5,16.6,30.03,WNW,290,16.5,16.5,69,0.00,,,0.00,VWS V14.01,2013-03-13 13:48:00,
2013-03-13 09:49:00,25.5,16.4,30.04,NW,313,14.5,16.7,68,0.00,,,0.00,VWS V14.01,2013-03-13 13:49:00,
2013-03-13 09:50:00,25.5,16.8,30.04,NW,322,11.4,14.5,69,0.00,,,0.00,VWS V14.01,2013-03-13 13:50:00,
2013-03-13 09:51:00,25.5,16.8,30.04,NNW,344,13.3,13.3,69,0.00,,,0.00,VWS V14.01,2013-03-13 13:51:00,
2013-03-13 09:55:00,25.3,17.0,30.04,NW,309,14.3,14.3,70,0.00,,,0.00,VWS V14.01,2013-03-13 13:55:00,
2013-03-13 09:56:00,25.4,17.1,30.04,WNW,295,14.6,14.6,70,0.00,,,0.00,VWS V14.01,2013-03-13 13:56:00,
2013-03-13 09:57:00,25.5,17.4,30.04,NW,314,13.1,14.3,71,0.00,,,0.00,VWS V14.01,2013-03-13 13:57:00,
2013-03-13 10:00:00,25.8,17.2,30.04,NW,322,13.6,15.3,70,0.00,,,0.00,VWS V14.01,2013-03-13 14:00:00,
2013-03-13 10:01:00,25.5,17.2,30.05,NW,309,11.9,11.9,70,0.00,,,0.00,VWS V14.01,2013-03-13 14:01:00,
2013-03-13 10:02:00,26.4,18.1,30.05,NNW,330,12.8,12.9,70,0.00,,,0.00,VWS V14.01,2013-03-13 14:02:00,
2013-03-13 10:04:00,26.5,18.1,30.06,NNW,329,9.0,12.9,70,0.00,,,0.00,VWS V14.01,2013-03-13 14:04:00,
2013-03-13 10:06:00,26.1,17.6,30.05,NW,323,11.2,12.3,70,0.00,,,0.00,VWS V14.01,2013-03-13 14:06:00,
2013-03-13 10:08:00,25.5,17.3,30.05,WNW,296,15.2,15.2,71,0.00,,,0.00,VWS V14.01,2013-03-13 14:08:00,
2013-03-13 10:09:00,25.3,16.8,30.05,WNW,301,17.2,19.8,70,0.00,,,0.00,VWS V14.01,2013-03-13 14:09:00,
2013-03-13 10:13:00,25.8,18.3,30.06,NW,312,11.2,13.3,73,0.00,,,0.00,VWS V14.01,2013-03-13 14:13:00,
2013-03-13 10:15:00,25.9,17.6,30.05,NW,309,11.4,11.4,70,0.00,,,0.00,VWS V14.01,2013-03-13 14:15:00,
2013-03-13 10:18:00,26.6,17.2,30.04,NW,321,6.8,13.8,67,0.00,,,0.00,VWS V14.01,2013-03-13 14:18:00,
2013-03-13 10:19:00,25.9,16.4,30.05,NW,314,13.1,13.8,67,0.00,,,0.00,VWS V14.01,2013-03-13 14:19:00,
2013-03-13 10:21:00,25.7,16.1,30.05,NW,310,15.5,15.5,67,0.00,,,0.00,VWS V14.01,2013-03-13 14:21:00,
2013-03-13 10:23:00,25.7,15.7,30.05,NW,314,20.0,20.0,65,0.00,,,0.00,VWS V14.01,2013-03-13 14:23:00,
2013-03-13 10:25:00,25.5,14.8,30.05,NW,310,15.5,19.6,63,0.00,,,0.00,VWS V14.01,2013-03-13 14:25:00,
2013-03-13 10:26:00,25.8,15.1,30.06,NNW,344,16.0,16.0,63,0.00,,,0.00,VWS V14.01,2013-03-13 14:26:00,
2013-03-13 10:29:00,27.1,15.1,30.06,NNW,334,9.0,11.4,60,0.00,,,0.00,VWS V14.01,2013-03-13 14:29:00,
2013-03-13 10:32:00,26.5,14.2,30.05,NW,317,13.5,13.5,59,0.00,,,0.00,VWS V14.01,2013-03-13 14:32:00,
2013-03-13 10:34:00,26.8,14.8,30.04,NNW,338,10.5,10.5,60,0.00,,,0.00,VWS V14.01,2013-03-13 14:34:00,
2013-03-13 10:36:00,26.2,14.6,30.05,NW,316,17.2,17.2,61,0.00,,,0.00,VWS V14.01,2013-03-13 14:36:00,
2013-03-13 10:38:00,26.5,14.7,30.05,NW,312,20.8,20.8,61,0.00,,,0.00,VWS V14.01,2013-03-13 14:38:00,
2013-03-13 10:40:00,26.2,14.6,30.05,NNW,332,20.1,20.1,61,0.00,,,0.00,VWS V14.01,2013-03-13 14:40:00,
2013-03-13 10:42:00,26.0,14.3,30.05,NW,316,22.0,22.0,61,0.00,,,0.00,VWS V14.01,2013-03-13 14:42:00,
2013-03-13 10:44:00,26.7,14.6,30.05,NW,318,12.4,19.1,60,0.00,,,0.00,VWS V14.01,2013-03-13 14:44:00,
2013-03-13 10:46:00,26.5,14.2,30.06,NW,311,14.8,19.6,59,0.00,,,0.00,VWS V14.01,2013-03-13 14:46:00,
2013-03-13 10:47:00,26.5,14.3,30.06,NNW,327,19.4,19.4,60,0.00,,,0.00,VWS V14.01,2013-03-13 14:47:00,
2013-03-13 10:48:00,26.7,14.5,30.06,NW,323,17.0,17.0,59,0.00,,,0.00,VWS V14.01,2013-03-13 14:48:00,
2013-03-13 10:49:00,27.0,15.2,30.06,NW,310,18.1,18.1,61,0.00,,,0.00,VWS V14.01,2013-03-13 14:49:00,
2013-03-13 10:51:00,26.9,15.1,30.05,NNW,328,14.6,15.7,61,0.00,,,0.00,VWS V14.01,2013-03-13 14:51:00,
2013-03-13 10:53:00,27.8,16.2,30.06,NNW,334,6.1,11.2,61,0.00,,,0.00,VWS V14.01,2013-03-13 14:53:00,
2013-03-13 10:55:00,27.3,14.9,30.05,NW,322,18.2,18.2,59,0.00,,,0.00,VWS V14.01,2013-03-13 14:55:00,
2013-03-13 10:57:00,27.1,14.8,30.06,NW,310,11.7,21.2,59,0.00,,,0.00,VWS V14.01,2013-03-13 14:57:00,
2013-03-13 10:58:00,26.9,15.3,30.06,WNW,301,16.9,17.9,61,0.00,,,0.00,VWS V14.01,2013-03-13 14:58:00,
2013-03-13 10:59:00,26.5,15.6,30.05,NW,304,12.9,16.9,63,0.00,,,0.00,VWS V14.01,2013-03-13 14:59:00,
2013-03-13 11:03:00,26.3,15.1,30.06,WNW,295,14.0,14.0,62,0.00,,,0.00,VWS V14.01,2013-03-13 15:03:00,
2013-03-13 11:04:00,26.6,15.4,30.06,NW,321,17.9,17.9,62,0.00,,,0.00,VWS V14.01,2013-03-13 15:04:00,
2013-03-13 11:05:00,26.6,15.4,30.06,NW,321,17.9,17.9,62,0.00,,,0.00,VWS V14.01,2013-03-13 15:05:00,
2013-03-13 11:06:00,26.1,15.9,30.07,WNW,288,14.6,14.6,65,0.00,,,0.00,VWS V14.01,2013-03-13 15:06:00,
2013-03-13 11:08:00,26.6,16.2,30.07,WNW,303,18.8,18.8,64,0.00,,,0.00,VWS V14.01,2013-03-13 15:08:00,
2013-03-13 11:10:00,26.4,16.1,30.07,WNW,303,19.3,20.3,65,0.00,,,0.00,VWS V14.01,2013-03-13 15:10:00,
2013-03-13 11:11:00,27.2,17.7,30.11,NW,311,12.8,19.3,67,0.00,,,0.00,VWS V14.01,2013-03-13 15:11:00,
2013-03-13 11:15:00,26.9,16.6,30.06,WNW,302,14.3,16.4,65,0.00,,,0.00,VWS V14.01,2013-03-13 15:15:00,
2013-03-13 11:16:00,26.2,15.8,30.07,WNW,300,19.3,19.4,64,0.00,,,0.00,VWS V14.01,2013-03-13 15:16:00,
2013-03-13 11:17:00,26.2,16.1,30.06,WNW,297,15.8,19.4,65,0.00,,,0.00,VWS V14.01,2013-03-13 15:17:00,
2013-03-13 11:20:00,26.5,15.9,30.07,NW,310,19.1,19.1,64,0.00,,,0.00,VWS V14.01,2013-03-13 15:20:00,
2013-03-13 11:21:00,26.8,16.4,30.06,NW,309,16.5,16.5,64,0.00,,,0.00,VWS V14.01,2013-03-13 15:21:00,
2013-03-13 11:22:00,28.2,18.2,30.06,NW,313,12.3,16.5,66,0.00,,,0.00,VWS V14.01,2013-03-13 15:22:00,
2013-03-13 11:23:00,27.4,16.2,30.07,WNW,298,17.9,17.9,62,0.00,,,0.00,VWS V14.01,2013-03-13 15:23:00,
2013-03-13 11:26:00,26.8,15.9,30.06,WNW,287,20.3,20.3,63,0.00,,,0.00,VWS V14.01,2013-03-13 15:26:00,
2013-03-13 11:27:00,27.6,17.1,30.06,NW,314,18.8,20.3,64,0.00,,,0.00,VWS V14.01,2013-03-13 15:27:00,
2013-03-13 11:29:00,27.1,16.7,30.07,WNW,286,16.5,20.5,64,0.00,,,0.00,VWS V14.01,2013-03-13 15:29:00,
2013-03-13 11:30:00,27.2,17.2,30.07,WNW,284,15.7,18.4,66,0.00,,,0.00,VWS V14.01,2013-03-13 15:30:00,
2013-03-13 11:31:00,27.1,16.6,30.07,NW,304,13.5,17.0,64,0.00,,,0.00,VWS V14.01,2013-03-13 15:31:00,
2013-03-13 11:34:00,27.0,16.9,30.07,NW,310,14.8,14.8,65,0.00,,,0.00,VWS V14.01,2013-03-13 15:34:00,
2013-03-13 11:37:00,27.1,16.0,30.07,NW,306,18.2,19.8,63,0.00,,,0.00,VWS V14.01,2013-03-13 15:37:00,
2013-03-13 11:39:00,27.5,15.8,30.07,NW,310,15.2,17.0,61,0.00,,,0.00,VWS V14.01,2013-03-13 15:39:00,
2013-03-13 11:42:00,27.5,15.0,30.07,WNW,301,20.5,20.5,59,0.00,,,0.00,VWS V14.01,2013-03-13 15:42:00,
2013-03-13 11:43:00,27.7,15.1,30.07,NW,325,16.7,20.5,59,0.00,,,0.00,VWS V14.01,2013-03-13 15:43:00,
2013-03-13 11:44:00,27.2,14.7,30.07,NW,315,17.7,18.6,59,0.00,,,0.00,VWS V14.01,2013-03-13 15:44:00,
2013-03-13 11:45:00,27.1,14.8,30.07,NW,317,18.6,18.6,59,0.00,,,0.00,VWS V14.01,2013-03-13 15:45:00,
2013-03-13 11:48:00,27.6,14.3,30.07,NW,312,20.3,21.0,57,0.00,,,0.00,VWS V14.01,2013-03-13 15:48:00,
2013-03-13 11:49:00,28.7,16.3,30.07,NW,324,13.5,20.3,59,0.00,,,0.00,VWS V14.01,2013-03-13 15:49:00,
2013-03-13 11:51:00,27.5,14.2,30.07,NNW,348,21.3,21.3,57,0.00,,,0.00,VWS V14.01,2013-03-13 15:51:00,
2013-03-13 11:53:00,27.7,14.6,30.08,NW,321,17.0,18.6,57,0.00,,,0.00,VWS V14.01,2013-03-13 15:53:00,
2013-03-13 11:54:00,27.7,14.6,30.08,NW,321,17.0,18.6,57,0.00,,,0.00,VWS V14.01,2013-03-13 15:54:00,
2013-03-13 11:55:00,27.5,15.5,30.08,NW,310,14.8,14.8,60,0.00,,,0.00,VWS V14.01,2013-03-13 15:55:00,
2013-03-13 11:59:00,27.4,13.5,30.07,NW,312,15.2,22.0,55,0.00,,,0.00,VWS V14.01,2013-03-13 15:59:00,
2013-03-13 12:00:00,27.1,13.1,30.06,NW,316,21.3,21.3,55,0.00,,,0.00,VWS V14.01,2013-03-13 16:00:00,
2013-03-13 12:04:00,26.9,14.5,30.08,NW,314,15.8,15.8,59,0.00,,,0.00,VWS V14.01,2013-03-13 16:04:00,
2013-03-13 12:05:00,26.9,15.0,30.08,NNW,339,14.5,15.7,60,0.00,,,0.00,VWS V14.01,2013-03-13 16:05:00,
2013-03-13 12:06:00,27.1,15.7,30.08,NNW,341,15.3,15.7,62,0.00,,,0.00,VWS V14.01,2013-03-13 16:06:00,
2013-03-13 12:09:00,27.1,15.6,30.09,WNW,302,13.8,15.8,61,0.00,,,0.00,VWS V14.01,2013-03-13 16:09:00,
2013-03-13 12:10:00,27.4,16.4,30.13,NW,310,11.6,15.8,63,0.00,,,0.00,VWS V14.01,2013-03-13 16:10:00,
2013-03-13 12:13:00,27.3,15.4,30.08,NNW,343,10.7,13.6,60,0.00,,,0.00,VWS V14.01,2013-03-13 16:13:00,
2013-03-13 12:15:00,27.2,14.0,30.08,North,2,12.3,13.8,57,0.00,,,0.00,VWS V14.01,2013-03-13 16:15:00,
2013-03-13 12:16:00,27.1,13.9,30.08,NW,312,15.3,15.3,57,0.00,,,0.00,VWS V14.01,2013-03-13 16:16:00,
2013-03-13 12:18:00,26.7,12.5,30.08,NW,325,19.1,19.1,54,0.00,,,0.00,VWS V14.01,2013-03-13 16:18:00,
2013-03-13 12:19:00,26.9,12.8,30.09,NW,309,18.1,19.1,55,0.00,,,0.00,VWS V14.01,2013-03-13 16:19:00,
2013-03-13 12:21:00,27.1,13.1,30.09,WNW,302,18.2,18.2,55,0.00,,,0.00,VWS V14.01,2013-03-13 16:21:00,
2013-03-13 12:22:00,27.5,14.2,30.09,NW,313,14.1,18.9,57,0.00,,,0.00,VWS V14.01,2013-03-13 16:22:00,
2013-03-13 12:23:00,27.8,14.7,30.09,WNW,297,15.5,15.5,57,0.00,,,0.00,VWS V14.01,2013-03-13 16:23:00,
2013-03-13 12:24:00,29.0,16.8,30.09,NNW,332,13.5,15.5,60,0.00,,,0.00,VWS V14.01,2013-03-13 16:24:00,
2013-03-13 12:26:00,28.8,15.1,30.09,NNW,332,13.3,15.5,56,0.00,,,0.00,VWS V14.01,2013-03-13 16:26:00,
2013-03-13 12:28:00,28.3,15.0,30.08,NW,310,11.6,11.9,57,0.00,,,0.00,VWS V14.01,2013-03-13 16:28:00,
2013-03-13 12:29:00,27.7,13.6,30.08,WNW,301,17.6,17.6,55,0.00,,,0.00,VWS V14.01,2013-03-13 16:29:00,
2013-03-13 12:37:00,27.5,14.7,30.09,NW,311,18.1,18.1,58,0.00,,,0.00,VWS V14.01,2013-03-13 16:37:00,
2013-03-13 12:38:00,28.0,15.6,30.09,NW,320,16.7,20.5,59,0.00,,,0.00,VWS V14.01,2013-03-13 16:38:00,
2013-03-13 12:39:00,27.4,15.6,30.09,WNW,303,18.6,18.6,61,0.00,,,0.00,VWS V14.01,2013-03-13 16:39:00,
2013-03-13 12:40:00,27.5,14.3,30.08,NW,306,23.2,23.2,57,0.00,,,0.00,VWS V14.01,2013-03-13 16:40:00,
2013-03-13 12:43:00,27.4,15.0,30.09,NW,308,21.0,21.0,59,0.00,,,0.00,VWS V14.01,2013-03-13 16:43:00,
2013-03-13 12:44:00,28.0,16.0,30.09,NW,309,13.8,19.1,60,0.00,,,0.00,VWS V14.01,2013-03-13 16:44:00,
2013-03-13 12:45:00,28.3,16.2,30.09,WNW,296,13.5,13.8,60,0.00,,,0.00,VWS V14.01,2013-03-13 16:45:00,
2013-03-13 12:48:00,27.7,16.4,30.09,NW,312,18.8,23.6,62,0.00,,,0.00,VWS V14.01,2013-03-13 16:48:00,
2013-03-13 12:49:00,27.5,16.1,30.08,WNW,296,20.1,20.1,62,0.00,,,0.00,VWS V14.01,2013-03-13 16:49:00,
2013-03-13 12:50:00,27.9,16.4,30.08,WNW,301,14.6,20.1,61,0.00,,,0.00,VWS V14.01,2013-03-13 16:50:00,
2013-03-13 12:54:00,28.3,16.3,30.09,NW,320,18.9,18.9,60,0.00,,,0.00,VWS V14.01,2013-03-13 16:54:00,
2013-03-13 12:55:00,28.7,15.8,30.09,North,350,12.4,12.8,58,0.00,,,0.00,VWS V14.01,2013-03-13 16:55:00,
2013-03-13 12:59:00,28.1,15.3,30.10,NW,325,16.2,16.2,58,0.00,,,0.00,VWS V14.01,2013-03-13 16:59:00,
2013-03-13 13:00:00,28.6,14.4,30.09,NNW,346,16.0,19.4,55,0.00,,,0.00,VWS V14.01,2013-03-13 17:00:00,
2013-03-13 13:02:00,28.2,12.7,30.09,WNW,303,14.5,16.0,52,0.00,,,0.00,VWS V14.01,2013-03-13 17:02:00,
2013-03-13 13:06:00,27.5,12.7,30.09,NW,309,21.8,21.8,53,0.00,,,0.00,VWS V14.01,2013-03-13 17:06:00,
2013-03-13 13:07:00,27.8,13.4,30.09,NW,321,15.5,21.8,54,0.00,,,0.00,VWS V14.01,2013-03-13 17:07:00,
2013-03-13 13:09:00,27.7,13.5,30.09,NNW,340,10.0,21.8,54,0.00,,,0.00,VWS V14.01,2013-03-13 17:09:00,
2013-03-13 13:10:00,27.5,13.8,30.09,NNW,328,16.5,21.8,56,0.00,,,0.00,VWS V14.01,2013-03-13 17:10:00,
2013-03-13 13:11:00,27.8,14.6,30.10,WNW,300,12.6,21.8,57,0.00,,,0.00,VWS V14.01,2013-03-13 17:11:00,
2013-03-13 13:15:00,27.4,17.2,30.10,NW,326,13.5,21.8,65,0.00,,,0.00,VWS V14.01,2013-03-13 17:15:00,
2013-03-13 13:16:00,27.1,17.6,30.10,NW,317,12.4,21.8,67,0.00,,,0.00,VWS V14.01,2013-03-13 17:16:00,
2013-03-13 13:17:00,27.1,17.6,30.10,NW,317,12.4,21.8,67,0.00,,,0.00,VWS V14.01,2013-03-13 17:17:00,
2013-03-13 13:21:00,24.8,18.0,30.11,NNW,340,16.9,27.0,75,0.00,,,0.00,VWS V14.01,2013-03-13 17:21:00,
2013-03-13 13:22:00,24.8,17.9,30.11,NW,313,20.8,27.0,75,0.00,,,0.00,VWS V14.01,2013-03-13 17:22:00,
2013-03-13 13:23:00,25.4,17.1,30.11,NW,310,18.8,27.0,70,0.00,,,0.00,VWS V14.01,2013-03-13 17:23:00,
2013-03-13 13:24:00,26.4,19.1,30.11,WNW,301,17.0,27.0,74,0.00,,,0.00,VWS V14.01,2013-03-13 17:24:00,
2013-03-13 13:27:00,26.8,19.0,30.11,NW,307,12.6,27.0,72,0.00,,,0.00,VWS V14.01,2013-03-13 17:27:00,
2013-03-13 13:30:00,28.0,18.4,30.11,WNW,298,15.2,27.0,67,0.00,,,0.00,VWS V14.01,2013-03-13 17:30:00,
2013-03-13 13:31:00,27.9,17.5,30.11,NW,312,19.4,27.0,65,0.00,,,0.00,VWS V14.01,2013-03-13 17:31:00,
2013-03-13 13:33:00,27.7,17.2,30.11,West,271,12.9,27.0,64,0.00,,,0.00,VWS V14.01,2013-03-13 17:33:00,
2013-03-13 13:35:00,28.8,18.5,30.11,NW,314,14.5,27.0,65,0.00,,,0.00,VWS V14.01,2013-03-13 17:35:00,
2013-03-13 13:37:00,29.1,19.0,30.11,WNW,302,10.0,27.0,65,0.00,,,0.00,VWS V14.01,2013-03-13 17:37:00,
2013-03-13 13:38:00,28.3,17.6,30.11,West,268,15.0,27.0,64,0.00,,,0.00,VWS V14.01,2013-03-13 17:38:00,
2013-03-13 13:39:00,28.3,17.6,30.11,West,268,15.0,27.0,64,0.00,,,0.00,VWS V14.01,2013-03-13 17:39:00,
2013-03-13 13:42:00,27.8,16.6,30.11,NW,325,20.1,27.0,62,0.00,,,0.00,VWS V14.01,2013-03-13 17:42:00,
2013-03-13 13:44:00,28.7,16.9,30.11,NW,324,13.8,27.0,61,0.00,,,0.00,VWS V14.01,2013-03-13 17:44:00,
2013-03-13 13:48:00,28.2,13.8,30.11,NNW,335,18.1,27.0,54,0.00,,,0.00,VWS V14.01,2013-03-13 17:48:00,
2013-03-13 13:49:00,28.3,15.2,30.11,NW,310,13.8,27.0,57,0.00,,,0.00,VWS V14.01,2013-03-13 17:49:00,
2013-03-13 13:50:00,28.8,16.6,30.11,WNW,299,10.9,27.0,60,0.00,,,0.00,VWS V14.01,2013-03-13 17:50:00,
2013-03-13 13:52:00,28.2,13.6,30.11,NW,314,20.3,27.0,54,0.00,,,0.00,VWS V14.01,2013-03-13 17:52:00,
2013-03-13 13:53:00,28.5,13.4,30.12,NW,306,19.4,27.0,52,0.00,,,0.00,VWS V14.01,2013-03-13 17:53:00,
2013-03-13 13:56:00,28.5,13.0,30.11,NW,323,17.0,27.0,52,0.00,,,0.00,VWS V14.01,2013-03-13 17:56:00,
2013-03-13 13:58:00,28.0,12.4,30.10,NW,305,19.3,27.0,52,0.00,,,0.00,VWS V14.01,2013-03-13 17:58:00,
2013-03-13 13:59:00,28.0,13.6,30.11,WNW,296,15.7,27.0,54,0.00,,,0.00,VWS V14.01,2013-03-13 17:59:00,
2013-03-13 14:01:00,28.1,12.1,30.11,NW,325,18.8,27.0,50,0.00,,,0.00,VWS V14.01,2013-03-13 18:01:00,
2013-03-13 14:03:00,27.9,12.2,30.11,NW,305,21.7,21.7,51,0.00,,,0.00,VWS V14.01,2013-03-13 18:03:00,
2013-03-13 14:05:00,27.9,13.1,30.11,NNW,332,17.6,18.9,53,0.00,,,0.00,VWS V14.01,2013-03-13 18:05:00,
2013-03-13 14:07:00,28.4,14.4,30.12,NW,320,15.5,20.3,55,0.00,,,0.00,VWS V14.01,2013-03-13 18:07:00,
2013-03-13 14:08:00,28.4,14.4,30.12,NW,320,15.5,20.3,55,0.00,,,0.00,VWS V14.01,2013-03-13 18:08:00,
2013-03-13 14:13:00,28.1,12.8,30.12,NW,318,20.6,21.7,52,0.00,,,0.00,VWS V14.01,2013-03-13 18:13:00,
2013-03-13 14:14:00,28.3,13.6,30.12,NNW,329,17.9,20.6,54,0.00,,,0.00,VWS V14.01,2013-03-13 18:14:00,
2013-03-13 14:19:00,28.4,13.8,30.11,NW,319,16.9,19.4,54,0.00,,,0.00,VWS V14.01,2013-03-13 18:19:00,
2013-03-13 14:20:00,27.5,13.2,30.11,NW,306,17.0,17.0,55,0.00,,,0.00,VWS V14.01,2013-03-13 18:20:00,
2013-03-13 14:21:00,27.6,13.3,30.11,WNW,302,15.2,17.0,55,0.00,,,0.00,VWS V14.01,2013-03-13 18:21:00,
2013-03-13 14:25:00,28.9,15.2,30.11,WNW,282,11.1,15.2,56,0.00,,,0.00,VWS V14.01,2013-03-13 18:25:00,
2013-03-13 14:26:00,28.2,12.8,30.12,NNW,332,22.7,22.7,52,0.00,,,0.00,VWS V14.01,2013-03-13 18:26:00,
2013-03-13 14:27:00,28.5,13.3,30.10,WNW,287,15.7,23.9,52,0.00,,,0.00,VWS V14.01,2013-03-13 18:27:00,
2013-03-13 14:30:00,29.5,14.0,30.11,NW,320,15.0,16.7,52,0.00,,,0.00,VWS V14.01,2013-03-13 18:30:00,
2013-03-13 14:31:00,29.9,14.4,30.11,NW,320,14.3,18.8,52,0.00,,,0.00,VWS V14.01,2013-03-13 18:31:00,
2013-03-13 14:32:00,28.2,10.9,30.11,WNW,303,22.9,22.9,48,0.00,,,0.00,VWS V14.01,2013-03-13 18:32:00,
2013-03-13 14:33:00,28.2,10.9,30.11,WNW,303,22.9,22.9,48,0.00,,,0.00,VWS V14.01,2013-03-13 18:33:00,
2013-03-13 14:37:00,29.3,12.8,30.11,WNW,292,21.5,21.5,50,0.00,,,0.00,VWS V14.01,2013-03-13 18:37:00,
2013-03-13 14:38:00,28.6,11.7,30.11,NW,320,18.6,19.8,49,0.00,,,0.00,VWS V14.01,2013-03-13 18:38:00,
2013-03-13 14:42:00,28.0,11.4,30.12,WNW,290,20.5,20.5,49,0.00,,,0.00,VWS V14.01,2013-03-13 18:42:00,
2013-03-13 14:43:00,28.5,11.6,30.12,NW,322,21.8,22.4,49,0.00,,,0.00,VWS V14.01,2013-03-13 18:43:00,
2013-03-13 14:44:00,28.4,11.6,30.12,NW,308,23.4,23.4,49,0.00,,,0.00,VWS V14.01,2013-03-13 18:44:00,
2013-03-13 14:47:00,27.7,12.4,30.13,NW,305,25.4,25.4,52,0.00,,,0.00,VWS V14.01,2013-03-13 18:47:00,
2013-03-13 14:49:00,28.0,15.2,30.12,WNW,284,14.6,19.6,58,0.00,,,0.00,VWS V14.01,2013-03-13 18:49:00,
2013-03-13 14:52:00,27.7,15.9,30.11,NW,308,18.6,18.6,61,0.00,,,0.00,VWS V14.01,2013-03-13 18:52:00,
2013-03-13 14:53:00,28.1,15.8,30.12,NW,310,19.3,19.3,59,0.00,,,0.00,VWS V14.01,2013-03-13 18:53:00,
2013-03-13 14:54:00,27.7,16.2,30.12,West,281,17.7,17.7,62,0.00,,,0.00,VWS V14.01,2013-03-13 18:54:00,
2013-03-13 14:55:00,27.2,16.8,30.12,West,277,18.1,18.8,64,0.00,,,0.00,VWS V14.01,2013-03-13 18:55:00,
2013-03-13 14:57:00,28.5,18.1,30.12,WNW,296,15.0,15.0,65,0.00,,,0.00,VWS V14.01,2013-03-13 18:57:00,
2013-03-13 14:58:00,27.3,16.9,30.12,WNW,295,20.1,20.1,64,0.00,,,0.00,VWS V14.01,2013-03-13 18:58:00,
2013-03-13 14:59:00,27.9,17.5,30.11,NW,313,16.0,19.1,65,0.00,,,0.00,VWS V14.01,2013-03-13 18:59:00,
2013-03-13 15:00:00,29.1,19.3,30.12,WNW,292,12.8,19.1,66,0.00,,,0.00,VWS V14.01,2013-03-13 19:00:00,
2013-03-13 15:02:00,28.0,17.7,30.12,WNW,284,16.7,18.8,65,0.00,,,0.00,VWS V14.01,2013-03-13 19:02:00,
2013-03-13 15:05:00,27.4,16.4,30.12,WNW,300,22.5,22.5,63,0.00,,,0.00,VWS V14.01,2013-03-13 19:05:00,
2013-03-13 15:06:00,27.2,16.4,30.12,WNW,289,18.6,22.5,63,0.00,,,0.00,VWS V14.01,2013-03-13 19:06:00,
2013-03-13 15:08:00,28.0,16.2,30.12,WNW,293,19.1,21.5,61,0.00,,,0.00,VWS V14.01,2013-03-13 19:08:00,
2013-03-13 15:11:00,28.0,16.1,30.12,WNW,285,20.1,20.1,60,0.00,,,0.00,VWS V14.01,2013-03-13 19:11:00,
2013-03-13 15:14:00,28.5,18.7,30.12,WNW,294,14.6,16.2,66,0.00,,,0.00,VWS V14.01,2013-03-13 19:14:00,
2013-03-13 15:17:00,27.9,17.5,30.17,NNW,337,13.6,19.4,65,0.00,,,0.00,VWS V14.01,2013-03-13 19:17:00,
2013-03-13 15:18:00,27.2,17.2,30.13,WNW,289,18.6,18.6,66,0.00,,,0.00,VWS V14.01,2013-03-13 19:18:00,
2013-03-13 15:19:00,27.0,15.9,30.12,NW,309,14.8,14.8,62,0.00,,,0.00,VWS V14.01,2013-03-13 19:19:00,
2013-03-13 15:23:00,28.3,19.3,30.12,NNW,342,14.5,16.7,69,0.00,,,0.00,VWS V14.01,2013-03-13 19:23:00,
2013-03-13 15:24:00,28.0,17.5,30.12,NW,307,14.3,14.5,64,0.00,,,0.00,VWS V14.01,2013-03-13 19:24:00,
2013-03-13 15:26:00,28.6,16.7,30.12,WNW,298,17.4,21.0,61,0.00,,,0.00,VWS V14.01,2013-03-13 19:26:00,
2013-03-13 15:28:00,28.1,16.5,30.12,NW,304,24.6,24.6,61,0.00,,,0.00,VWS V14.01,2013-03-13 19:28:00,
2013-03-13 15:30:00,28.3,17.3,30.11,NW,313,20.3,22.0,63,0.00,,,0.00,VWS V14.01,2013-03-13 19:30:00,
2013-03-13 15:32:00,29.6,19.3,30.12,NW,307,16.5,19.6,65,0.00,,,0.00,VWS V14.01,2013-03-13 19:32:00,
2013-03-13 15:33:00,28.4,18.1,30.12,WNW,283,18.6,18.6,65,0.00,,,0.00,VWS V14.01,2013-03-13 19:33:00,
2013-03-13 15:34:00,29.4,19.3,30.13,NW,311,16.7,18.6,66,0.00,,,0.00,VWS V14.01,2013-03-13 19:34:00,
2013-03-13 15:38:00,28.1,17.6,30.14,NW,315,18.1,18.1,64,0.00,,,0.00,VWS V14.01,2013-03-13 19:38:00,
2013-03-13 15:40:00,28.0,17.4,30.14,NNW,327,21.8,21.8,64,0.00,,,0.00,VWS V14.01,2013-03-13 19:40:00,
2013-03-13 15:43:00,27.8,16.7,30.13,NW,315,22.7,22.7,63,0.00,,,0.00,VWS V14.01,2013-03-13 19:43:00,
2013-03-13 15:44:00,28.1,16.9,30.12,NW,315,21.0,21.0,62,0.00,,,0.00,VWS V14.01,2013-03-13 19:44:00,
2013-03-13 15:45:00,28.7,17.9,30.12,WNW,303,18.4,21.0,63,0.00,,,0.00,VWS V14.01,2013-03-13 19:45:00,
2013-03-13 15:46:00,27.4,15.6,30.12,NW,306,19.8,19.8,61,0.00,,,0.00,VWS V14.01,2013-03-13 19:46:00,
2013-03-13 15:49:00,27.8,16.1,30.13,NW,311,21.0,23.4,61,0.00,,,0.00,VWS V14.01,2013-03-13 19:49:00,
2013-03-13 15:51:00,27.8,16.5,30.14,WNW,297,20.0,20.0,62,0.00,,,0.00,VWS V14.01,2013-03-13 19:51:00,
2013-03-13 15:54:00,28.2,17.0,30.14,NW,314,17.6,17.6,62,0.00,,,0.00,VWS V14.01,2013-03-13 19:54:00,
2013-03-13 15:56:00,28.8,18.3,30.12,NW,305,18.2,18.2,64,0.00,,,0.00,VWS V14.01,2013-03-13 19:56:00,
2013-03-13 15:57:00,29.3,18.9,30.12,WNW,302,16.4,17.9,65,0.00,,,0.00,VWS V14.01,2013-03-13 19:57:00,
2013-03-13 15:59:00,28.5,16.9,30.14,WNW,302,19.8,19.8,61,0.00,,,0.00,VWS V14.01,2013-03-13 19:59:00,
2013-03-13 16:02:00,27.5,18.3,30.15,NW,326,20.8,22.5,68,0.00,,,0.00,VWS V14.01,2013-03-13 20:02:00,
2013-03-13 16:03:00,27.5,18.3,30.15,NW,326,20.8,22.5,68,0.00,,,0.00,VWS V14.01,2013-03-13 20:03:00,
2013-03-13 16:04:00,28.4,21.3,30.13,NW,304,14.6,18.1,74,0.00,,,0.00,VWS V14.01,2013-03-13 20:04:00,
2013-03-13 16:05:00,27.6,20.5,30.18,NW,304,16.4,16.4,74,0.00,,,0.00,VWS V14.01,2013-03-13 20:05:00,
2013-03-13 16:08:00,26.9,19.7,30.13,NW,306,17.2,18.4,74,0.00,,,0.00,VWS V14.01,2013-03-13 20:08:00,
2013-03-13 16:09:00,27.0,19.7,30.14,WNW,299,19.6,19.6,74,0.00,,,0.00,VWS V14.01,2013-03-13 20:09:00,
2013-03-13 16:10:00,27.3,19.6,30.15,NW,322,18.6,21.7,73,0.00,,,0.00,VWS V14.01,2013-03-13 20:10:00,
2013-03-13 16:14:00,27.6,20.2,30.14,NW,317,13.5,15.5,74,0.00,,,0.00,VWS V14.01,2013-03-13 20:14:00,
2013-03-13 16:15:00,28.2,20.4,30.14,NW,309,21.7,21.7,72,0.00,,,0.00,VWS V14.01,2013-03-13 20:15:00,
2013-03-13 16:16:00,27.8,19.9,30.14,NW,310,15.2,17.2,72,0.00,,,0.00,VWS V14.01,2013-03-13 20:16:00,
2013-03-13 16:20:00,26.8,19.5,30.15,WNW,301,23.0,23.0,74,0.00,,,0.00,VWS V14.01,2013-03-13 20:20:00,
2013-03-13 16:22:00,27.4,21.1,30.15,NW,322,14.6,15.5,77,0.00,,,0.00,VWS V14.01,2013-03-13 20:22:00,
2013-03-13 16:23:00,25.8,20.7,30.15,NNW,330,18.1,18.1,81,0.00,,,0.00,VWS V14.01,2013-03-13 20:23:00,
2013-03-13 16:25:00,26.3,21.6,30.15,NW,307,17.2,17.2,82,0.00,,,0.00,VWS V14.01,2013-03-13 20:25:00,
2013-03-13 16:27:00,27.0,22.5,30.20,WNW,293,17.6,18.9,83,0.00,,,0.00,VWS V14.01,2013-03-13 20:27:00,
2013-03-13 16:30:00,27.3,19.8,30.15,NW,315,14.6,16.2,73,0.00,,,0.00,VWS V14.01,2013-03-13 20:30:00,
2013-03-13 16:31:00,29.1,19.4,30.15,WNW,300,13.1,13.1,66,0.00,,,0.00,VWS V14.01,2013-03-13 20:31:00,
2013-03-13 16:34:00,28.5,18.9,30.15,NW,309,17.2,17.2,67,0.00,,,0.00,VWS V14.01,2013-03-13 20:34:00,
2013-03-13 16:37:00,28.6,18.7,30.14,NNW,335,16.0,17.6,66,0.00,,,0.00,VWS V14.01,2013-03-13 20:37:00,
2013-03-13 16:38:00,28.6,18.0,30.14,NNW,327,20.8,20.8,64,0.00,,,0.00,VWS V14.01,2013-03-13 20:38:00,
2013-03-13 16:39:00,29.5,19.4,30.15,NW,316,13.3,17.6,65,0.00,,,0.00,VWS V14.01,2013-03-13 20:39:00,
2013-03-13 16:42:00,27.6,17.2,30.15,WNW,302,19.6,19.6,64,0.00,,,0.00,VWS V14.01,2013-03-13 20:42:00,
2013-03-13 16:43:00,28.1,18.4,30.16,NW,308,19.3,19.6,66,0.00,,,0.00,VWS V14.01,2013-03-13 20:43:00,
2013-03-13 16:44:00,28.1,17.9,30.15,WNW,295,18.6,19.3,65,0.00,,,0.00,VWS V14.01,2013-03-13 20:44:00,
2013-03-13 16:45:00,27.4,17.9,30.16,NW,309,21.5,21.5,67,0.00,,,0.00,VWS V14.01,2013-03-13 20:45:00,
2013-03-13 16:48:00,27.5,18.0,30.15,WNW,295,18.1,18.1,67,0.00,,,0.00,VWS V14.01,2013-03-13 20:48:00,
2013-03-13 16:49:00,27.9,17.5,30.14,WNW,287,20.1,20.1,65,0.00,,,0.00,VWS V14.01,2013-03-13 20:49:00,
2013-03-13 16:50:00,27.8,18.7,30.16,NW,304,14.3,20.1,68,0.00,,,0.00,VWS V14.01,2013-03-13 20:50:00,
2013-03-13 16:53:00,27.8,18.2,30.16,West,279,18.6,18.6,67,0.00,,,0.00,VWS V14.01,2013-03-13 20:53:00,
2013-03-13 16:54:00,28.6,19.2,30.15,NNW,337,13.6,13.6,67,0.00,,,0.00,VWS V14.01,2013-03-13 20:54:00,
2013-03-13 16:55:00,28.1,19.3,30.20,NW,309,12.6,12.6,69,0.00,,,0.00,VWS V14.01,2013-03-13 20:55:00,
2013-03-13 16:57:00,27.8,17.1,30.16,NNW,334,21.8,21.8,64,0.00,,,0.00,VWS V14.01,2013-03-13 20:57:00,
2013-03-13 17:00:00,28.3,13.1,30.16,NW,308,17.0,17.0,52,0.00,,,0.00,VWS V14.01,2013-03-13 21:00:00,
2013-03-13 17:01:00,28.8,17.8,30.16,NW,311,8.8,17.0,63,0.00,,,0.00,VWS V14.01,2013-03-13 21:01:00,
2013-03-13 17:02:00,28.8,17.8,30.16,NW,311,8.8,17.0,63,0.00,,,0.00,VWS V14.01,2013-03-13 21:02:00,
2013-03-13 17:06:00,28.2,16.3,30.16,West,281,18.2,18.2,61,0.00,,,0.00,VWS V14.01,2013-03-13 21:06:00,
2013-03-13 17:08:00,28.0,16.2,30.16,NW,325,20.3,20.3,61,0.00,,,0.00,VWS V14.01,2013-03-13 21:08:00,
2013-03-13 17:09:00,28.1,15.8,30.16,NW,323,22.0,22.7,60,0.00,,,0.00,VWS V14.01,2013-03-13 21:09:00,
2013-03-13 17:12:00,28.4,15.9,30.16,NW,308,16.4,23.0,59,0.00,,,0.00,VWS V14.01,2013-03-13 21:12:00,
2013-03-13 17:13:00,28.1,16.5,30.16,WNW,298,18.2,18.2,61,0.00,,,0.00,VWS V14.01,2013-03-13 21:13:00,
2013-03-13 17:14:00,28.0,16.2,30.16,NW,304,18.6,18.6,61,0.00,,,0.00,VWS V14.01,2013-03-13 21:14:00,
2013-03-13 17:17:00,28.9,17.7,30.17,NW,319,11.2,16.0,62,0.00,,,0.00,VWS V14.01,2013-03-13 21:17:00,
2013-03-13 17:18:00,27.9,16.8,30.16,North,10,18.6,18.6,63,0.00,,,0.00,VWS V14.01,2013-03-13 21:18:00,
2013-03-13 17:19:00,28.0,16.6,30.15,NW,313,14.8,21.5,62,0.00,,,0.00,VWS V14.01,2013-03-13 21:19:00,
2013-03-13 17:22:00,27.9,16.6,30.17,NNW,332,22.2,22.2,62,0.00,,,0.00,VWS V14.01,2013-03-13 21:22:00,
2013-03-13 17:23:00,27.9,16.9,30.17,NW,306,21.7,21.7,63,0.00,,,0.00,VWS V14.01,2013-03-13 21:23:00,
2013-03-13 17:25:00,28.2,17.7,30.17,NW,307,16.0,20.6,64,0.00,,,0.00,VWS V14.01,2013-03-13 21:25:00,
2013-03-13 17:28:00,28.5,16.9,30.17,NW,312,21.2,21.2,62,0.00,,,0.00,VWS V14.01,2013-03-13 21:28:00,
2013-03-13 17:31:00,28.6,17.9,30.17,WNW,289,13.6,14.1,64,0.00,,,0.00,VWS V14.01,2013-03-13 21:31:00,
2013-03-13 17:32:00,28.3,17.2,30.16,NW,321,14.6,15.3,63,0.00,,,0.00,VWS V14.01,2013-03-13 21:32:00,
2013-03-13 17:35:00,28.2,16.2,30.18,NW,324,20.8,20.8,60,0.00,,,0.00,VWS V14.01,2013-03-13 21:35:00,
2013-03-13 17:36:00,28.6,16.3,30.17,NW,319,21.3,21.3,60,0.00,,,0.00,VWS V14.01,2013-03-13 21:36:00,
2013-03-13 17:37:00,28.6,16.3,30.22,NW,307,12.9,21.3,59,0.00,,,0.00,VWS V14.01,2013-03-13 21:37:00,
2013-03-13 17:38:00,28.5,16.0,30.17,NW,322,17.6,21.3,59,0.00,,,0.00,VWS V14.01,2013-03-13 21:38:00,
2013-03-13 17:42:00,28.2,14.9,30.17,NW,319,22.4,22.4,57,0.00,,,0.00,VWS V14.01,2013-03-13 21:42:00,
2013-03-13 17:43:00,28.4,15.4,30.16,NNW,336,17.9,17.9,58,0.00,,,0.00,VWS V14.01,2013-03-13 21:43:00,
2013-03-13 17:44:00,29.3,16.5,30.17,NW,311,15.7,19.6,58,0.00,,,0.00,VWS V14.01,2013-03-13 21:44:00,
2013-03-13 17:48:00,28.5,15.8,30.18,NW,309,14.3,14.3,58,0.00,,,0.00,VWS V14.01,2013-03-13 21:48:00,
2013-03-13 17:49:00,28.3,16.0,30.17,NW,315,16.2,16.2,59,0.00,,,0.00,VWS V14.01,2013-03-13 21:49:00,
2013-03-13 17:50:00,28.0,14.9,30.18,NW,312,19.1,19.4,57,0.00,,,0.00,VWS V14.01,2013-03-13 21:50:00,
2013-03-13 17:53:00,28.4,16.5,30.18,NW,323,14.6,14.6,61,0.00,,,0.00,VWS V14.01,2013-03-13 21:53:00,
2013-03-13 17:54:00,28.3,15.6,30.17,NW,326,9.2,12.4,58,0.00,,,0.00,VWS V14.01,2013-03-13 21:54:00,
2013-03-13 17:56:00,28.0,15.2,30.17,NW,307,19.6,19.6,58,0.00,,,0.00,VWS V14.01,2013-03-13 21:56:00,
2013-03-13 17:58:00,29.2,17.1,30.17,WNW,302,11.9,18.8,60,0.00,,,0.00,VWS V14.01,2013-03-13 21:58:00,
2013-03-13 17:59:00,28.1,14.8,30.17,NNW,337,21.0,21.0,57,0.00,,,0.00,VWS V14.01,2013-03-13 21:59:00,
2013-03-13 18:01:00,28.1,13.6,30.18,NW,314,19.6,21.8,54,0.00,,,0.00,VWS V14.01,2013-03-13 22:01:00,
2013-03-13 18:03:00,28.1,14.0,30.18,NW,321,18.1,21.8,55,0.00,,,0.00,VWS V14.01,2013-03-13 22:03:00,
2013-03-13 18:04:00,28.3,14.5,30.18,NW,325,16.5,21.8,56,0.00,,,0.00,VWS V14.01,2013-03-13 22:04:00,
2013-03-13 18:08:00,28.1,13.8,30.17,NW,322,19.6,22.5,54,0.00,,,0.00,VWS V14.01,2013-03-13 22:08:00,
2013-03-13 18:09:00,28.2,14.3,30.18,NW,322,23.6,23.6,55,0.00,,,0.00,VWS V14.01,2013-03-13 22:09:00,
2013-03-13 18:10:00,28.4,14.7,30.18,WNW,300,17.0,23.6,56,0.00,,,0.00,VWS V14.01,2013-03-13 22:10:00,
2013-03-13 18:13:00,28.8,14.7,30.18,NW,313,15.0,23.6,55,0.00,,,0.00,VWS V14.01,2013-03-13 22:13:00,
2013-03-13 18:15:00,28.8,13.8,30.18,NW,316,15.7,23.6,53,0.00,,,0.00,VWS V14.01,2013-03-13 22:15:00,
2013-03-13 18:16:00,28.5,12.8,30.18,NNW,327,16.9,23.6,51,0.00,,,0.00,VWS V14.01,2013-03-13 22:16:00,
2013-03-13 18:17:00,28.7,13.5,30.18,NW,319,14.6,23.6,52,0.00,,,0.00,VWS V14.01,2013-03-13 22:17:00,
2013-03-13 18:18:00,28.6,14.0,30.19,NW,321,19.1,23.6,54,0.00,,,0.00,VWS V14.01,2013-03-13 22:18:00,
2013-03-13 18:21:00,28.0,14.5,30.18,WNW,293,18.4,23.6,56,0.00,,,0.00,VWS V14.01,2013-03-13 22:21:00,
2013-03-13 18:23:00,28.4,15.5,30.18,NW,314,20.3,23.6,58,0.00,,,0.00,VWS V14.01,2013-03-13 22:23:00,
2013-03-13 18:24:00,28.4,15.2,30.18,NW,311,20.6,23.6,57,0.00,,,0.00,VWS V14.01,2013-03-13 22:24:00,
2013-03-13 18:28:00,28.5,14.7,30.18,WNW,299,18.9,23.6,56,0.00,,,0.00,VWS V14.01,2013-03-13 22:28:00,
2013-03-13 18:29:00,28.3,14.4,30.18,NW,312,16.9,23.6,56,0.00,,,0.00,VWS V14.01,2013-03-13 22:29:00,
2013-03-13 18:30:00,29.1,15.8,30.19,West,281,12.3,23.6,57,0.00,,,0.00,VWS V14.01,2013-03-13 22:30:00,
2013-03-13 18:33:00,29.0,14.5,30.19,WNW,296,19.4,23.6,54,0.00,,,0.00,VWS V14.01,2013-03-13 22:33:00,
2013-03-13 18:35:00,28.6,12.2,30.20,NNW,340,16.9,23.6,50,0.00,,,0.00,VWS V14.01,2013-03-13 22:35:00,
2013-03-13 18:36:00,28.6,12.4,30.20,NW,311,17.7,23.6,50,0.00,,,0.00,VWS V14.01,2013-03-13 22:36:00,
2013-03-13 18:38:00,28.5,11.3,30.19,NW,323,17.0,24.6,48,0.00,,,0.00,VWS V14.01,2013-03-13 22:38:00,
2013-03-13 18:39:00,27.9,12.4,30.19,WNW,298,18.1,24.6,52,0.00,,,0.00,VWS V14.01,2013-03-13 22:39:00,
2013-03-13 18:42:00,27.7,11.5,30.19,NW,305,21.8,24.6,50,0.00,,,0.00,VWS V14.01,2013-03-13 22:42:00,
2013-03-13 18:44:00,27.8,11.6,30.19,NW,315,24.6,24.6,50,0.00,,,0.00,VWS V14.01,2013-03-13 22:44:00,
2013-03-13 18:47:00,28.1,9.2,30.19,NW,324,17.2,24.6,44,0.00,,,0.00,VWS V14.01,2013-03-13 22:47:00,
2013-03-13 18:48:00,28.4,12.8,30.20,WNW,299,16.5,24.6,51,0.00,,,0.00,VWS V14.01,2013-03-13 22:48:00,
2013-03-13 18:50:00,28.1,12.4,30.20,NW,305,23.7,24.6,51,0.00,,,0.00,VWS V14.01,2013-03-13 22:50:00,
2013-03-13 18:52:00,28.0,11.8,30.19,NW,310,19.8,24.6,50,0.00,,,0.00,VWS V14.01,2013-03-13 22:52:00,
2013-03-13 18:53:00,27.8,12.2,30.19,WNW,301,17.0,24.6,51,0.00,,,0.00,VWS V14.01,2013-03-13 22:53:00,
2013-03-13 18:55:00,27.7,12.7,30.20,NNW,333,13.8,24.6,53,0.00,,,0.00,VWS V14.01,2013-03-13 22:55:00,
2013-03-13 18:56:00,27.8,12.2,30.20,NW,322,16.2,24.6,51,0.00,,,0.00,VWS V14.01,2013-03-13 22:56:00,
2013-03-13 18:59:00,27.6,11.7,30.19,NW,313,17.9,24.6,51,0.00,,,0.00,VWS V14.01,2013-03-13 22:59:00,
2013-03-13 19:01:00,27.7,11.6,30.19,WNW,301,19.8,24.6,50,0.00,,,0.00,VWS V14.01,2013-03-13 23:01:00,
2013-03-13 19:04:00,27.8,11.8,30.20,West,278,18.1,18.6,50,0.00,,,0.00,VWS V14.01,2013-03-13 23:04:00,
2013-03-13 19:05:00,27.7,11.4,30.20,NW,315,20.3,20.3,50,0.00,,,0.00,VWS V14.01,2013-03-13 23:05:00,
2013-03-13 19:07:00,27.5,11.4,30.20,NW,313,16.4,16.4,50,0.00,,,0.00,VWS V14.01,2013-03-13 23:07:00,
2013-03-13 19:09:00,27.4,11.5,30.20,NW,313,21.0,21.0,51,0.00,,,0.00,VWS V14.01,2013-03-13 23:09:00,
2013-03-13 19:12:00,27.4,12.1,30.20,NW,318,14.0,14.0,52,0.00,,,0.00,VWS V14.01,2013-03-13 23:12:00,
2013-03-13 19:13:00,27.4,12.5,30.21,NW,313,14.3,14.3,53,0.00,,,0.00,VWS V14.01,2013-03-13 23:13:00,
2013-03-13 19:15:00,27.4,12.2,30.21,NW,306,17.2,17.6,52,0.00,,,0.00,VWS V14.01,2013-03-13 23:15:00,
2013-03-13 19:18:00,27.3,12.3,30.20,West,281,18.1,18.1,53,0.00,,,0.00,VWS V14.01,2013-03-13 23:18:00,
2013-03-13 19:19:00,27.2,11.6,30.21,WNW,290,15.8,18.8,51,0.00,,,0.00,VWS V14.01,2013-03-13 23:19:00,
2013-03-13 19:21:00,27.1,11.8,30.21,WNW,284,19.6,19.6,52,0.00,,,0.00,VWS V14.01,2013-03-13 23:21:00,
2013-03-13 19:23:00,26.9,12.5,30.21,NW,313,14.1,15.8,54,0.00,,,0.00,VWS V14.01,2013-03-13 23:23:00,
2013-03-13 19:24:00,27.1,12.5,30.21,WNW,290,19.1,19.1,54,0.00,,,0.00,VWS V14.01,2013-03-13 23:24:00,
2013-03-13 19:25:00,27.2,11.9,30.21,NW,314,18.4,20.8,52,0.00,,,0.00,VWS V14.01,2013-03-13 23:25:00,
2013-03-13 19:28:00,27.1,11.8,30.21,NW,306,15.8,20.8,52,0.00,,,0.00,VWS V14.01,2013-03-13 23:28:00,
2013-03-13 19:29:00,27.2,12.1,30.21,NW,319,18.9,18.9,52,0.00,,,0.00,VWS V14.01,2013-03-13 23:29:00,
2013-03-13 19:31:00,27.1,11.8,30.21,NW,325,14.3,17.7,52,0.00,,,0.00,VWS V14.01,2013-03-13 23:31:00,
2013-03-13 19:34:00,27.1,12.3,30.21,NW,316,14.8,20.1,53,0.00,,,0.00,VWS V14.01,2013-03-13 23:34:00,
2013-03-13 19:35:00,27.1,11.9,30.21,WNW,294,20.0,20.0,52,0.00,,,0.00,VWS V14.01,2013-03-13 23:35:00,
2013-03-13 19:36:00,26.9,11.8,30.21,NW,308,18.4,20.0,53,0.00,,,0.00,VWS V14.01,2013-03-13 23:36:00,
2013-03-13 19:39:00,26.6,12.3,30.22,NW,314,14.6,16.0,54,0.00,,,0.00,VWS V14.01,2013-03-13 23:39:00,
2013-03-13 19:40:00,26.7,12.2,30.22,NW,305,12.8,16.0,54,0.00,,,0.00,VWS V14.01,2013-03-13 23:40:00,
2013-03-13 19:41:00,26.9,11.4,30.21,NW,315,21.8,21.8,52,0.00,,,0.00,VWS V14.01,2013-03-13 23:41:00,
2013-03-13 19:42:00,26.9,11.3,30.21,NW,319,17.2,21.8,51,0.00,,,0.00,VWS V14.01,2013-03-13 23:42:00,
2013-03-13 19:46:00,26.8,11.6,30.22,WNW,299,16.0,16.4,52,0.00,,,0.00,VWS V14.01,2013-03-13 23:46:00,
2013-03-13 19:47:00,26.7,11.5,30.22,NNW,335,17.2,17.2,52,0.00,,,0.00,VWS V14.01,2013-03-13 23:47:00,
2013-03-13 19:48:00,26.2,12.3,30.22,NW,314,11.2,14.0,55,0.00,,,0.00,VWS V14.01,2013-03-13 23:48:00,
2013-03-13 19:51:00,26.5,12.6,30.22,NW,318,15.3,15.3,55,0.00,,,0.00,VWS V14.01,2013-03-13 23:51:00,
2013-03-13 19:52:00,26.5,12.6,30.22,NW,318,15.3,15.3,55,0.00,,,0.00,VWS V14.01,2013-03-13 23:52:00,
2013-03-13 19:54:00,26.4,12.2,30.22,NNW,329,14.8,18.4,54,0.00,,,0.00,VWS V14.01,2013-03-13 23:54:00,
2013-03-13 19:57:00,26.2,12.7,30.22,WNW,301,16.2,20.8,56,0.00,,,0.00,VWS V14.01,2013-03-13 23:57:00,
2013-03-13 19:58:00,26.1,12.6,30.21,NW,307,18.2,18.2,56,0.00,,,0.00,VWS V14.01,2013-03-13 23:58:00,
2013-03-13 20:00:00,26.4,12.5,30.22,NW,311,18.4,18.4,55,0.00,,,0.00,VWS V14.01,2013-03-14 00:00:00,
2013-03-13 20:02:00,26.2,12.2,30.22,NW,320,14.6,17.0,55,0.00,,,0.00,VWS V14.01,2013-03-14 00:02:00,
2013-03-13 20:03:00,26.0,12.3,30.22,NW,315,14.6,14.6,56,0.00,,,0.00,VWS V14.01,2013-03-14 00:03:00,
2013-03-13 20:06:00,26.1,12.5,30.22,NW,312,14.5,20.5,56,0.00,,,0.00,VWS V14.01,2013-03-14 00:06:00,
2013-03-13 20:07:00,25.8,12.7,30.22,NW,316,8.1,14.5,57,0.00,,,0.00,VWS V14.01,2013-03-14 00:07:00,
2013-03-13 20:12:00,26.1,12.2,30.28,NW,315,14.5,16.7,55,0.00,,,0.00,VWS V14.01,2013-03-14 00:12:00,
2013-03-13 20:14:00,26.0,12.0,30.23,NW,315,14.1,21.3,55,0.00,,,0.00,VWS V14.01,2013-03-14 00:14:00,
2013-03-13 20:15:00,26.4,12.8,30.22,NW,304,18.8,18.8,56,0.00,,,0.00,VWS V14.01,2013-03-14 00:15:00,
2013-03-13 20:18:00,26.3,12.1,30.22,NW,314,16.0,17.6,54,0.00,,,0.00,VWS V14.01,2013-03-14 00:18:00,
2013-03-13 20:19:00,26.0,12.3,30.23,WNW,291,14.0,16.0,56,0.00,,,0.00,VWS V14.01,2013-03-14 00:19:00,
2013-03-13 20:21:00,26.1,12.1,30.23,NW,312,17.4,18.2,55,0.00,,,0.00,VWS V14.01,2013-03-14 00:21:00,
2013-03-13 20:24:00,25.9,12.1,30.23,NW,318,12.6,16.0,55,0.00,,,0.00,VWS V14.01,2013-03-14 00:24:00,
2013-03-13 20:25:00,26.2,11.8,30.23,NW,311,14.6,14.6,54,0.00,,,0.00,VWS V14.01,2013-03-14 00:25:00,
2013-03-13 20:28:00,26.3,11.4,30.23,WNW,300,18.4,19.6,53,0.00,,,0.00,VWS V14.01,2013-03-14 00:28:00,
2013-03-13 20:29:00,26.2,11.6,30.22,NW,309,17.9,18.4,53,0.00,,,0.00,VWS V14.01,2013-03-14 00:29:00,
2013-03-13 20:30:00,26.2,12.2,30.23,NW,316,15.0,15.0,55,0.00,,,0.00,VWS V14.01,2013-03-14 00:30:00,
2013-03-13 20:31:00,26.1,11.9,30.23,NW,307,16.7,16.7,55,0.00,,,0.00,VWS V14.01,2013-03-14 00:31:00,
2013-03-13 20:34:00,26.0,11.9,30.23,NW,307,14.8,18.6,55,0.00,,,0.00,VWS V14.01,2013-03-14 00:34:00,
2013-03-13 20:38:00,26.0,12.1,30.23,NW,322,16.5,16.5,55,0.00,,,0.00,VWS V14.01,2013-03-14 00:38:00,
2013-03-13 20:39:00,26.0,12.1,30.23,NW,311,15.3,16.5,55,0.00,,,0.00,VWS V14.01,2013-03-14 00:39:00,
2013-03-13 20:40:00,25.6,12.1,30.23,NW,317,12.3,12.9,56,0.00,,,0.00,VWS V14.01,2013-03-14 00:40:00,
2013-03-13 20:45:00,25.8,12.6,30.23,WNW,289,15.2,15.2,57,0.00,,,0.00,VWS V14.01,2013-03-14 00:45:00,
2013-03-13 20:47:00,25.9,12.4,30.23,NNW,327,14.0,14.3,56,0.00,,,0.00,VWS V14.01,2013-03-14 00:47:00,
2013-03-13 20:50:00,25.6,12.2,30.23,NW,309,11.1,18.1,56,0.00,,,0.00,VWS V14.01,2013-03-14 00:50:00,
2013-03-13 20:51:00,26.0,12.4,30.24,WNW,302,15.3,15.7,56,0.00,,,0.00,VWS V14.01,2013-03-14 00:51:00,
2013-03-13 20:52:00,25.7,12.6,30.24,WNW,290,13.6,15.3,57,0.00,,,0.00,VWS V14.01,2013-03-14 00:52:00,
2013-03-13 20:56:00,25.6,12.8,30.24,WNW,302,15.0,15.0,58,0.00,,,0.00,VWS V14.01,2013-03-14 00:56:00,
2013-03-13 20:58:00,25.4,13.3,30.24,NW,316,10.9,18.1,59,0.00,,,0.00,VWS V14.01,2013-03-14 00:58:00,
2013-03-13 21:00:00,25.7,12.6,30.24,NW,311,13.5,14.1,57,0.00,,,0.00,VWS V14.01,2013-03-14 01:00:00,
2013-03-13 21:03:00,25.9,12.6,30.23,NW,323,18.1,18.1,57,0.00,,,0.00,VWS V14.01,2013-03-14 01:03:00,
2013-03-13 21:04:00,25.8,12.5,30.24,NW,315,18.1,18.1,57,0.00,,,0.00,VWS V14.01,2013-03-14 01:04:00,
2013-03-13 21:06:00,25.7,12.6,30.24,NW,320,14.5,14.5,57,0.00,,,0.00,VWS V14.01,2013-03-14 01:06:00,
2013-03-13 21:08:00,25.5,12.8,30.24,NNW,332,10.0,15.2,58,0.00,,,0.00,VWS V14.01,2013-03-14 01:08:00,
2013-03-13 21:10:00,25.5,12.6,30.29,NW,326,16.0,16.0,57,0.00,,,0.00,VWS V14.01,2013-03-14 01:10:00,
2013-03-13 21:12:00,25.9,13.0,30.24,West,281,18.1,18.1,58,0.00,,,0.00,VWS V14.01,2013-03-14 01:12:00,
2013-03-13 21:13:00,25.7,12.9,30.24,WNW,299,16.7,16.7,58,0.00,,,0.00,VWS V14.01,2013-03-14 01:13:00,
2013-03-13 21:15:00,25.5,12.4,30.24,WNW,303,12.3,16.7,57,0.00,,,0.00,VWS V14.01,2013-03-14 01:15:00,
2013-03-13 21:17:00,25.8,13.1,30.25,NW,313,17.0,17.0,58,0.00,,,0.00,VWS V14.01,2013-03-14 01:17:00,
2013-03-13 21:18:00,25.8,12.8,30.25,WNW,295,20.5,20.5,57,0.00,,,0.00,VWS V14.01,2013-03-14 01:18:00,
2013-03-13 21:20:00,25.6,12.8,30.25,NNW,331,12.6,15.2,58,0.00,,,0.00,VWS V14.01,2013-03-14 01:20:00,
2013-03-13 21:21:00,25.5,12.7,30.24,NW,318,12.8,14.8,58,0.00,,,0.00,VWS V14.01,2013-03-14 01:21:00,
2013-03-13 21:23:00,25.4,12.8,30.25,NW,307,12.6,16.4,58,0.00,,,0.00,VWS V14.01,2013-03-14 01:23:00,
2013-03-13 21:24:00,25.2,12.8,30.25,NW,326,10.7,13.8,59,0.00,,,0.00,VWS V14.01,2013-03-14 01:24:00,
2013-03-13 21:25:00,25.4,13.1,30.24,NW,306,13.3,13.5,59,0.00,,,0.00,VWS V14.01,2013-03-14 01:25:00,
2013-03-13 21:27:00,25.5,13.4,30.25,WNW,301,13.3,13.3,60,0.00,,,0.00,VWS V14.01,2013-03-14 01:27:00,
2013-03-13 21:30:00,25.6,12.7,30.25,NW,316,14.3,15.5,58,0.00,,,0.00,VWS V14.01,2013-03-14 01:30:00,
2013-03-13 21:31:00,25.3,12.7,30.25,NNW,329,12.1,16.0,58,0.00,,,0.00,VWS V14.01,2013-03-14 01:31:00,
2013-03-13 21:32:00,25.1,13.0,30.25,WNW,294,10.4,11.1,59,0.00,,,0.00,VWS V14.01,2013-03-14 01:32:00,
2013-03-13 21:33:00,25.3,12.9,30.25,NW,306,10.9,12.6,59,0.00,,,0.00,VWS V14.01,2013-03-14 01:33:00,
2013-03-13 21:36:00,25.6,13.0,30.24,NW,319,12.1,12.1,58,0.00,,,0.00,VWS V14.01,2013-03-14 01:36:00,
2013-03-13 21:37:00,25.6,12.5,30.24,NNW,330,14.6,14.8,57,0.00,,,0.00,VWS V14.01,2013-03-14 01:37:00,
2013-03-13 21:39:00,25.5,12.9,30.24,NW,311,14.1,16.4,58,0.00,,,0.00,VWS V14.01,2013-03-14 01:39:00,
2013-03-13 21:41:00,25.4,12.7,30.30,NW,320,13.3,13.5,58,0.00,,,0.00,VWS V14.01,2013-03-14 01:41:00,
2013-03-13 21:43:00,25.7,12.8,30.25,WNW,298,17.0,17.0,58,0.00,,,0.00,VWS V14.01,2013-03-14 01:43:00,
2013-03-13 21:44:00,25.3,12.6,30.30,NW,310,11.6,16.0,58,0.00,,,0.00,VWS V14.01,2013-03-14 01:44:00,
2013-03-13 21:48:00,25.6,12.9,30.25,NW,311,17.4,17.4,58,0.00,,,0.00,VWS V14.01,2013-03-14 01:48:00,
2013-03-13 21:49:00,25.6,12.9,30.25,NW,311,17.4,17.4,58,0.00,,,0.00,VWS V14.01,2013-03-14 01:49:00,
2013-03-13 21:50:00,25.4,13.1,30.25,NW,315,15.5,17.4,59,0.00,,,0.00,VWS V14.01,2013-03-14 01:50:00,
2013-03-13 21:54:00,25.1,12.9,30.24,NW,304,9.7,12.8,59,0.00,,,0.00,VWS V14.01,2013-03-14 01:54:00,
2013-03-13 21:56:00,25.4,12.9,30.25,NW,304,12.3,13.5,59,0.00,,,0.00,VWS V14.01,2013-03-14 01:56:00,
2013-03-13 21:59:00,25.5,12.6,30.25,NW,305,14.0,14.8,58,0.00,,,0.00,VWS V14.01,2013-03-14 01:59:00,
2013-03-13 22:01:00,25.3,12.5,30.25,NNW,330,12.3,14.0,58,0.00,,,0.00,VWS V14.01,2013-03-14 02:01:00,
2013-03-13 22:02:00,25.3,12.9,30.25,NNW,329,10.9,14.0,59,0.00,,,0.00,VWS V14.01,2013-03-14 02:02:00,
2013-03-13 22:05:00,25.5,12.5,30.25,NW,317,14.0,16.4,57,0.00,,,0.00,VWS V14.01,2013-03-14 02:05:00,
2013-03-13 22:07:00,25.6,12.7,30.25,NW,306,13.8,13.8,58,0.00,,,0.00,VWS V14.01,2013-03-14 02:07:00,
2013-03-13 22:08:00,25.1,12.5,30.25,NW,325,10.5,13.8,58,0.00,,,0.00,VWS V14.01,2013-03-14 02:08:00,
2013-03-13 22:09:00,25.4,12.6,30.25,NW,307,14.1,14.1,58,0.00,,,0.00,VWS V14.01,2013-03-14 02:09:00,
2013-03-13 22:11:00,25.5,12.6,30.25,NW,312,16.7,16.7,57,0.00,,,0.00,VWS V14.01,2013-03-14 02:11:00,
2013-03-13 22:13:00,25.5,12.3,30.25,NNW,331,13.8,13.8,57,0.00,,,0.00,VWS V14.01,2013-03-14 02:13:00,
2013-03-13 22:14:00,25.5,12.2,30.25,NNW,343,17.2,17.2,56,0.00,,,0.00,VWS V14.01,2013-03-14 02:14:00,
2013-03-13 22:17:00,25.7,12.6,30.25,NW,312,17.2,17.2,57,0.00,,,0.00,VWS V14.01,2013-03-14 02:17:00,
2013-03-13 22:18:00,25.3,12.4,30.25,NW,304,11.9,11.9,58,0.00,,,0.00,VWS V14.01,2013-03-14 02:18:00,
2013-03-13 22:19:00,25.2,12.8,30.25,West,268,10.9,11.9,59,0.00,,,0.00,VWS V14.01,2013-03-14 02:19:00,
2013-03-13 22:20:00,25.0,12.7,30.25,NW,313,9.0,9.0,59,0.00,,,0.00,VWS V14.01,2013-03-14 02:20:00,
2013-03-13 22:22:00,25.5,12.7,30.25,NW,310,13.6,13.6,58,0.00,,,0.00,VWS V14.01,2013-03-14 02:22:00,
2013-03-13 22:25:00,24.9,12.8,30.26,NW,308,9.9,11.7,59,0.00,,,0.00,VWS V14.01,2013-03-14 02:25:00,
2013-03-13 22:26:00,25.0,13.2,30.26,WNW,296,9.3,11.7,60,0.00,,,0.00,VWS V14.01,2013-03-14 02:26:00,
2013-03-13 22:29:00,25.0,12.8,30.31,NNW,335,10.5,11.9,59,0.00,,,0.00,VWS V14.01,2013-03-14 02:29:00,
2013-03-13 22:30:00,25.3,12.7,30.26,WNW,302,12.4,12.4,58,0.00,,,0.00,VWS V14.01,2013-03-14 02:30:00,
2013-03-13 22:35:00,25.1,12.9,30.25,NW,324,11.7,11.7,59,0.00,,,0.00,VWS V14.01,2013-03-14 02:35:00,
2013-03-13 22:36:00,24.8,13.1,30.25,NW,317,10.4,10.4,60,0.00,,,0.00,VWS V14.01,2013-03-14 02:36:00,
2013-03-13 22:37:00,24.8,13.1,30.25,NW,317,10.4,10.4,60,0.00,,,0.00,VWS V14.01,2013-03-14 02:37:00,
2013-03-13 22:41:00,25.0,13.1,30.26,WNW,282,9.7,13.3,60,0.00,,,0.00,VWS V14.01,2013-03-14 02:41:00,
2013-03-13 22:42:00,25.0,13.1,30.26,WNW,282,9.7,13.3,60,0.00,,,0.00,VWS V14.01,2013-03-14 02:42:00,
2013-03-13 22:43:00,25.1,13.4,30.26,NNW,333,11.2,11.2,60,0.00,,,0.00,VWS V14.01,2013-03-14 02:43:00,
2013-03-13 22:44:00,25.0,13.1,30.26,WNW,290,10.2,12.6,60,0.00,,,0.00,VWS V14.01,2013-03-14 02:44:00,
2013-03-13 22:47:00,24.9,13.2,30.26,NW,306,11.2,11.2,60,0.00,,,0.00,VWS V14.01,2013-03-14 02:47:00,
2013-03-13 22:48:00,25.0,12.8,30.26,NW,315,11.1,14.0,59,0.00,,,0.00,VWS V14.01,2013-03-14 02:48:00,
2013-03-13 22:50:00,25.2,12.9,30.26,NW,308,10.5,12.8,59,0.00,,,0.00,VWS V14.01,2013-03-14 02:50:00,
2013-03-13 22:52:00,25.4,13.4,30.26,WNW,302,16.2,16.2,60,0.00,,,0.00,VWS V14.01,2013-03-14 02:52:00,
2013-03-13 22:53:00,25.1,12.6,30.25,WNW,302,11.7,11.7,58,0.00,,,0.00,VWS V14.01,2013-03-14 02:53:00,
2013-03-13 22:54:00,25.3,12.6,30.26,NW,312,13.5,13.5,58,0.00,,,0.00,VWS V14.01,2013-03-14 02:54:00,
2013-03-13 22:55:00,24.9,12.7,30.26,NW,314,10.9,11.6,59,0.00,,,0.00,VWS V14.01,2013-03-14 02:55:00,
2013-03-13 22:58:00,25.2,12.6,30.26,WNW,287,11.4,13.6,58,0.00,,,0.00,VWS V14.01,2013-03-14 02:58:00,
2013-03-13 23:00:00,25.1,12.4,30.26,West,280,10.7,12.6,58,0.00,,,0.00,VWS V14.01,2013-03-14 03:00:00,
2013-03-13 23:02:00,25.3,12.7,30.26,NW,312,14.0,14.3,58,0.00,,,0.00,VWS V14.01,2013-03-14 03:02:00,
2013-03-13 23:03:00,25.1,12.5,30.26,NW,305,12.3,14.0,58,0.00,,,0.00,VWS V14.01,2013-03-14 03:03:00,
2013-03-13 23:06:00,25.4,12.6,30.26,WNW,294,12.4,14.6,58,0.00,,,0.00,VWS V14.01,2013-03-14 03:06:00,
2013-03-13 23:07:00,25.2,12.8,30.31,NW,316,11.4,11.4,59,0.00,,,0.00,VWS V14.01,2013-03-14 03:07:00,
2013-03-13 23:08:00,25.0,11.3,30.26,NW,320,9.7,11.7,55,0.00,,,0.00,VWS V14.01,2013-03-14 03:08:00,
2013-03-13 23:12:00,24.7,12.9,30.26,NW,310,8.3,10.2,60,0.00,,,0.00,VWS V14.01,2013-03-14 03:12:00,
2013-03-13 23:13:00,24.6,13.1,30.27,NW,316,9.5,9.5,61,0.00,,,0.00,VWS V14.01,2013-03-14 03:13:00,
2013-03-13 23:17:00,24.8,13.1,30.26,NW,310,9.9,9.9,60,0.00,,,0.00,VWS V14.01,2013-03-14 03:17:00,
2013-03-13 23:18:00,24.8,12.9,30.27,WNW,285,9.5,11.2,60,0.00,,,0.00,VWS V14.01,2013-03-14 03:18:00,
2013-03-13 23:19:00,24.8,12.7,30.26,WNW,293,8.8,10.4,60,0.00,,,0.00,VWS V14.01,2013-03-14 03:19:00,
2013-03-13 23:23:00,24.7,13.1,30.27,NW,310,7.6,10.2,61,0.00,,,0.00,VWS V14.01,2013-03-14 03:23:00,
2013-03-13 23:24:00,24.8,13.2,30.27,NW,314,9.2,10.2,61,0.00,,,0.00,VWS V14.01,2013-03-14 03:24:00,
2013-03-13 23:28:00,25.0,12.7,30.27,WNW,298,11.2,12.6,59,0.00,,,0.00,VWS V14.01,2013-03-14 03:28:00,
2013-03-13 23:29:00,25.0,12.7,30.27,WNW,298,11.2,11.2,59,0.00,,,0.00,VWS V14.01,2013-03-14 03:29:00,
2013-03-13 23:30:00,24.9,12.8,30.27,WNW,297,10.2,11.2,60,0.00,,,0.00,VWS V14.01,2013-03-14 03:30:00,
2013-03-13 23:31:00,25.1,12.9,30.27,NW,310,14.5,14.5,59,0.00,,,0.00,VWS V14.01,2013-03-14 03:31:00,
2013-03-13 23:34:00,25.0,12.7,30.27,NW,314,10.4,10.4,59,0.00,,,0.00,VWS V14.01,2013-03-14 03:34:00,
2013-03-13 23:35:00,24.8,12.4,30.27,NW,321,7.6,7.6,59,0.00,,,0.00,VWS V14.01,2013-03-14 03:35:00,
2013-03-13 23:36:00,24.6,13.1,30.27,NW,314,7.3,8.0,61,0.00,,,0.00,VWS V14.01,2013-03-14 03:36:00,
2013-03-13 23:37:00,24.7,13.0,30.28,WNW,303,11.4,11.4,61,0.00,,,0.00,VWS V14.01,2013-03-14 03:37:00,
2013-03-13 23:39:00,25.0,13.0,30.28,NW,312,9.9,9.9,60,0.00,,,0.00,VWS V14.01,2013-03-14 03:39:00,
2013-03-13 23:40:00,25.0,13.0,30.28,NW,312,9.9,9.9,60,0.00,,,0.00,VWS V14.01,2013-03-14 03:40:00,
2013-03-13 23:41:00,24.9,12.4,30.27,NNW,336,10.4,10.7,58,0.00,,,0.00,VWS V14.01,2013-03-14 03:41:00,
2013-03-13 23:43:00,24.7,12.3,30.27,NNW,330,11.4,11.4,59,0.00,,,0.00,VWS V14.01,2013-03-14 03:43:00,
2013-03-13 23:45:00,24.7,12.9,30.27,NW,305,8.1,8.7,60,0.00,,,0.00,VWS V14.01,2013-03-14 03:45:00,
2013-03-13 23:48:00,24.5,12.9,30.27,NW,318,9.7,9.7,61,0.00,,,0.00,VWS V14.01,2013-03-14 03:48:00,
2013-03-13 23:50:00,24.8,12.6,30.28,NW,312,8.5,9.7,59,0.00,,,0.00,VWS V14.01,2013-03-14 03:50:00,
2013-03-13 23:53:00,24.6,12.4,30.27,NW,309,7.6,10.0,59,0.00,,,0.00,VWS V14.01,2013-03-14 03:53:00,
2013-03-13 23:54:00,25.1,13.0,30.32,WNW,292,10.5,10.5,60,0.00,,,0.00,VWS V14.01,2013-03-14 03:54:00,
2013-03-13 23:55:00,24.9,12.4,30.27,NW,319,9.2,11.4,59,0.00,,,0.00,VWS V14.01,2013-03-14 03:55:00,
2013-03-13 23:56:00,24.9,12.6,30.27,NW,306,10.5,10.5,59,0.00,,,0.00,VWS V14.01,2013-03-14 03:56:00,